Return to Metar
METAR CYNL 200600Z AUTO 10004KT 9SM SCT003 OVC012 M12/M14 A2899 RMK AO1 SLP871
SPECI CYNL 200537Z AUTO 12005KT 9SM FEW003 OVC013 M12/M14 A2900 RMK AO1 SLP874
SPECI CYNL 200519Z AUTO 12005KT 9SM OVC014 M12/M14 A2899 RMK AO1 SLP873
METAR CYNL 200500Z AUTO 11005KT 9SM BKN016 OVC038 M11/M14 A2900 RMK AO1 SLP873
SPECI CYNL 200453Z AUTO 11004KT 9SM BKN017 OVC038 M11/M14 A2900 RMK AO1 PRESFR SLP875
SPECI CYNL 200421Z AUTO 13005KT 6SM FEW009 SCT014 OVC037 M12/M14 A2901 RMK AO1 PRESFR SLP879
SPECI CYNL 200413Z AUTO 12005KT 4SM FEW009 BKN013 OVC037 M12/M14 A2901 RMK AO1 PRESFR SLP879
SPECI CYNL 200411Z AUTO 12005KT 3SM VV009 M12/M14 A2901 RMK AO1 PRESFR SLP879
METAR CYNL 200400Z AUTO 12004KT 3SM VV014 M12/M14 A2901 RMK AO1 PRESFR SLP879
SPECI CYNL 200359Z AUTO 12004KT 3SM VV014 M12/M14 A2901 RMK AO1 PRESFR SLP879
SPECI CYNL 200357Z AUTO 12004KT 2SM VV015 M12/M14 A2901 RMK AO1 PRESFR SLP880
SPECI CYNL 200356Z AUTO 12004KT 2SM VV014 M12/M14 A2901 RMK AO1 PRESFR SLP880
SPECI CYNL 200339Z AUTO 13005KT 1 3/4SM VV014 M12/M14 A2902 RMK AO1 PRESFR SLP883
SPECI CYNL 200338Z AUTO 13005KT 1 3/4SM VV015 M12/M14 A2902 RMK AO1 PRESFR SLP883
SPECI CYNL 200329Z AUTO 13007KT 2 1/2SM VV015 M12/M14 A2902 RMK AO1 PRESFR SLP885
METAR CYNL 200300Z AUTO 13007KT 2SM VV012 M12/M14 A2903 RMK AO1 PRESFR SLP888
SPECI CYNL 200259Z AUTO 13007KT 2SM VV012 M12/M14 A2903 RMK AO1 PRESFR SLP889
SPECI CYNL 200252Z AUTO 12007KT 1 3/4SM VV014 M12/M14 A2904 RMK AO1 PRESFR SLP891
SPECI CYNL 200243Z AUTO 12007KT 1 3/4SM VV020 M12/M14 A2905 RMK AO1 PRESFR SLP894
SPECI CYNL 200240Z AUTO 13008KT 2 1/2SM VV024 M12/M14 A2905 RMK AO1 PRESFR SLP895
SPECI CYNL 200235Z AUTO 13008KT 4SM VV025 M12/M14 A2906 RMK AO1 PRESFR SLP897
SPECI CYNL 200232Z AUTO 13007KT 3SM VV022 M12/M14 A2906 RMK AO1 PRESFR SLP899
SPECI CYNL 200224Z AUTO 13008KT 2 1/2SM VV023 M12/M14 A2907 RMK AO1 PRESFR SLP901
SPECI CYNL 200215Z AUTO 12009KT 3SM VV016 M12/M14 A2908 RMK AO1 PRESFR SLP902
SPECI CYNL 200213Z AUTO 13008KT 2SM VV016 M12/M14 A2908 RMK AO1 PRESFR SLP903
SPECI CYNL 200207Z AUTO 12006KT 1 3/4SM VV016 M11/M14 A2909 RMK AO1 PRESFR SLP906
SPECI CYNL 200203Z AUTO 12007KT 2SM VV015 M11/M14 A2909 RMK AO1 PRESFR SLP907
SPECI CYNL 200202Z AUTO 13006KT 1 3/4SM VV015 M11/M13 A2909 RMK AO1 PRESFR SLP907
METAR CYNL 200200Z AUTO 14005KT 1 3/4SM VV013 M11/M13 A2909 RMK AO1 PRESFR SLP908
SPECI CYNL 200154Z AUTO 14005KT 1 1/2SM VV012 M11/M14 A2910 RMK AO1 PRESFR SLP911
SPECI CYNL 200152Z AUTO 14006KT 1 1/4SM VV012 M11/M14 A2910 RMK AO1 PRESFR SLP912
SPECI CYNL 200143Z AUTO 15007KT 1 1/2SM VV014 M11/M14 A2911 RMK AO1 PRESFR SLP913
SPECI CYNL 200141Z AUTO 15007KT 1 1/2SM VV015 M11/M14 A2911 RMK AO1 PRESFR SLP913
SPECI CYNL 200133Z AUTO 15008KT 1 1/2SM VV010 M11/M14 A2911 RMK AO1 PRESFR SLP915
SPECI CYNL 200132Z AUTO 15008KT 1 1/4SM VV010 M11/M14 A2911 RMK AO1 PRESFR SLP916
SPECI CYNL 200126Z AUTO 15007KT 1 3/4SM VV014 M11/M14 A2912 RMK AO1 PRESFR SLP917
SPECI CYNL 200125Z AUTO 15008KT 1 3/4SM VV015 M11/M14 A2912 RMK AO1 PRESFR SLP917
SPECI CYNL 200123Z AUTO 15007KT 2SM VV016 M11/M14 A2912 RMK AO1 PRESFR SLP918
SPECI CYNL 200121Z AUTO 15008KT 1 3/4SM VV017 M11/M14 A2912 RMK AO1 PRESFR SLP919
SPECI CYNL 200113Z AUTO 15008KT 2SM VV015 M11/M14 A2912 RMK AO1 PRESFR SLP919
SPECI CYNL 200108Z AUTO 15008G17KT 2SM VV013 M11/M14 A2913 RMK AO1 PRESFR SLP921
SPECI CYNL 200101Z AUTO 15009G17KT 1 1/2SM VV014 M11/M14 A2914 RMK AO1 PRESFR SLP925
METAR CYNL 200100Z AUTO 15009G17KT 1 1/2SM VV015 M11/M14 A2914 RMK AO1 PRESFR SLP925
SPECI CYNL 200057Z AUTO 15009G16KT 1 1/2SM VV015 M11/M14 A2914 RMK AO1 PRESFR SLP927
SPECI CYNL 200041Z AUTO 15008KT 1 1/2SM VV011 M12/M14 A2916 RMK AO1 PRESFR SLP933
SPECI CYNL 200035Z AUTO 15009KT 1SM VV011 M12/M14 A2917 RMK AO1 PRESFR SLP936
SPECI CYNL 200029Z AUTO 15008KT 3/4SM VV011 M12/M14 A2917 RMK AO1 PRESFR SLP937
SPECI CYNL 200025Z AUTO 15008KT 5/8SM VV011 M12/M14 A2918 RMK AO1 PRESFR SLP940
SPECI CYNL 200019Z AUTO 16007KT 3/4SM VV010 M12/M14 A2919 RMK AO1 PRESFR SLP943
SPECI CYNL 200016Z AUTO 16008KT 1SM VV010 M12/M14 A2919 RMK AO1 PRESFR SLP943
SPECI CYNL 200009Z AUTO 14009KT 3/4SM VV011 M12/M14 A2919 RMK AO1 PRESFR SLP942
SPECI CYNL 200007Z AUTO 15009KT 1SM VV011 M12/M14 A2919 RMK AO1 PRESFR SLP943
SPECI CYNL 200003Z AUTO 15008KT 3/4SM VV012 M12/M14 A2919 RMK AO1 PRESFR SLP944
METAR CYNL 200000Z AUTO 15010KT 1/2SM VV012 M12/M14 A2920 RMK AO1 PRESFR SLP946
SPECI CYNL 192348Z AUTO 16010KT 5/8SM VV011 M12/M14 A2922 RMK AO1 PRESFR SLP954
SPECI CYNL 192343Z AUTO 16008KT 3/4SM VV010 M12/M14 A2923 RMK AO1 PRESFR SLP956
SPECI CYNL 192340Z AUTO 15010KT 1SM VV010 M12/M14 A2923 RMK AO1 PRESFR SLP956
SPECI CYNL 192336Z AUTO 15010KT 3/4SM VV011 M12/M14 A2923 RMK AO1 PRESFR SLP957
SPECI CYNL 192331Z AUTO 15009KT 1 1/4SM VV012 M12/M14 A2923 RMK AO1 PRESFR SLP958
SPECI CYNL 192330Z AUTO 15008KT 1 1/2SM VV012 M12/M14 A2923 RMK AO1 PRESFR SLP958
SPECI CYNL 192329Z AUTO 15009KT 1 1/4SM VV012 M12/M14 A2923 RMK AO1 PRESFR SLP958
SPECI CYNL 192324Z AUTO 15008KT 1 1/2SM VV011 M12/M14 A2924 RMK AO1 PRESFR SLP961
SPECI CYNL 192307Z AUTO 15008KT 1SM VV010 M12/M15 A2926 RMK AO1 PRESFR SLP968
SPECI CYNL 192304Z AUTO 14008KT 1 1/4SM VV009 M12/M15 A2926 RMK AO1 PRESFR SLP970
SPECI CYNL 192302Z AUTO 15009KT 1 1/4SM VV010 M12/M15 A2927 RMK AO1 PRESFR SLP970
METAR CYNL 192300Z AUTO 15008KT 1 1/2SM VV011 M12/M15 A2927 RMK AO1 PRESFR SLP971
SPECI CYNL 192251Z AUTO 14008KT 1 1/2SM VV010 M12/M15 A2927 RMK AO1 PRESFR SLP974
SPECI CYNL 192249Z AUTO 15008KT 1 1/2SM VV009 M12/M15 A2928 RMK AO1 PRESFR SLP975
SPECI CYNL 192248Z AUTO 14009KT 1 1/4SM VV009 M12/M15 A2928 RMK AO1 PRESFR SLP975
SPECI CYNL 192247Z AUTO 14009KT 1 1/2SM VV009 M12/M15 A2928 RMK AO1 PRESFR SLP976
SPECI CYNL 192245Z AUTO 15007KT 1 1/4SM VV009 M12/M15 A2928 RMK AO1 PRESFR SLP977
SPECI CYNL 192220Z AUTO 15006KT 1SM VV010 M13/M15 A2932 RMK AO1 PRESFR SLP990
SPECI CYNL 192214Z AUTO 16007KT 3/4SM VV009 M13/M15 A2933 RMK AO1 PRESFR SLP992
SPECI CYNL 192212Z AUTO 16006KT 5/8SM VV009 M13/M15 A2933 RMK AO1 PRESFR SLP993
METAR CYNL 192200Z AUTO 16006KT 3/4SM VV009 M13/M15 A2935 RMK AO1 PRESFR SLP000
SPECI CYNL 192159Z AUTO 16006KT 3/4SM VV009 M13/M15 A2935 RMK AO1 PRESFR SLP000
SPECI CYNL 192158Z AUTO 15007KT 1SM VV009 M13/M15 A2935 RMK AO1 PRESFR SLP001
SPECI CYNL 192149Z AUTO 15008KT 1 1/4SM VV011 M13/M15 A2936 RMK AO1 PRESFR SLP004
SPECI CYNL 192146Z AUTO 15007KT 1 1/2SM VV010 M13/M15 A2936 RMK AO1 PRESFR SLP005
SPECI CYNL 192145Z AUTO 16008KT 1 1/2SM VV009 M13/M15 A2936 RMK AO1 PRESFR SLP005
SPECI CYNL 192122Z AUTO 17010KT 1 1/4SM VV009 M13/M15 A2939 RMK AO1 PRESFR SLP016
SPECI CYNL 192120Z AUTO 17009G15KT 1 3/4SM VV009 M13/M15 A2940 RMK AO1 PRESFR SLP018
SPECI CYNL 192119Z AUTO 17010G15KT 1 3/4SM FEW007 OVC010 M13/M15 A2940 RMK AO1 PRESFR SLP018
SPECI CYNL 192117Z AUTO 18009G15KT 2 1/2SM FEW007 BKN010 OVC012 M13/M15 A2940 RMK AO1 PRESFR SLP019
METAR CYNL 192100Z AUTO 17010KT 4SM SCT007 OVC012 M13/M16 A2942 RMK AO1 PRESFR SLP026
SPECI CYNL 192056Z AUTO 17008KT 3SM SCT007 BKN010 OVC013 M13/M16 A2942 RMK AO1 PRESFR SLP027
SPECI CYNL 192046Z AUTO 17008KT 2SM VV007 M13/M16 A2943 RMK AO1 PRESFR SLP030
SPECI CYNL 192039Z AUTO 17008KT 1 1/2SM VV008 M13/M16 A2944 RMK AO1 PRESFR SLP033
SPECI CYNL 192028Z AUTO 17009KT 1 1/4SM BKN006 OVC009 M14/M16 A2945 RMK AO1 PRESFR SLP036
SPECI CYNL 192025Z AUTO 16010KT 1 3/4SM OVC006 M14/M16 A2945 RMK AO1 PRESFR SLP037
SPECI CYNL 192023Z AUTO 16009KT 2 1/2SM OVC006 M14/M16 A2945 RMK AO1 PRESFR SLP037
METAR CYNL 192000Z AUTO 16008KT 9SM OVC006 M14/M16 A2948 RMK AO1 PRESFR SLP049
METAR CYNL 191900Z AUTO 17009KT 9SM BKN008 BKN010 M14/M17 A2956 RMK AO1 PRESFR SLP078
SPECI CYNL 191847Z AUTO 18007KT 9SM BKN009 M14/M17 A2959 RMK AO1 PRESFR SLP085
SPECI CYNL 191845Z AUTO 17008KT 9SM SCT009 M15/M17 A2959 RMK AO1 PRESFR SLP087
METAR CYNL 191800Z AUTO 17007KT 9SM CLR M15/M18 A2964 RMK AO1 PRESFR SLP105
METAR CYNL 191700Z AUTO 18006KT 9SM FEW058 M16/M19 A2973 RMK AO1 PRESFR SLP137
METAR CYNL 191600Z AUTO 17007KT 9SM OVC056 M17/M19 A2979 RMK AO1 PRESFR SLP157
METAR CYNL 191500Z AUTO 17005KT 9SM OVC054 M17/M19 A2985 RMK AO1 PRESFR SLP179
METAR CYNL 191400Z AUTO 19004KT 9SM FEW024 OVC054 M17/M20 A2991 RMK AO1 PRESFR SLP202
SPECI CYNL 191330Z AUTO 19005KT 9SM SCT023 OVC054 M17/M20 A2993 RMK AO1 PRESFR SLP208
METAR CYNL 191300Z AUTO 19005KT 9SM OVC024 M17/M20 A2995 RMK AO1 PRESFR SLP215
SPECI CYNL 191233Z AUTO 18005KT 9SM SCT021 OVC026 M18/M20 A2997 RMK AO1 PRESFR SLP223
SPECI CYNL 191232Z AUTO 18005KT 9SM OVC024 M18/M20 A2997 RMK AO1 PRESFR SLP223
SPECI CYNL 191231Z AUTO 18005KT 9SM SCT021 OVC026 M18/M20 A2997 RMK AO1 PRESFR SLP223
SPECI CYNL 191205Z AUTO 17005KT 9SM BKN023 OVC049 M18/M21 A2999 RMK AO1 PRESFR SLP231
METAR CYNL 191200Z AUTO 18004KT 9SM SCT025 OVC048 M18/M21 A3001 RMK AO1 PRESFR SLP235
METAR CYNL 191100Z AUTO 21005KT 9SM OVC052 M19/M22 A3006 RMK AO1 PRESFR SLP254
METAR CYNL 191000Z AUTO 19005KT 9SM FEW020 OVC052 M19/M22 A3008 RMK AO1 PRESFR SLP261
SPECI CYNL 190946Z AUTO 21005KT 9SM FEW016 SCT020 OVC050 M19/M22 A3009 RMK AO1 SLP266
METAR CYNL 190900Z AUTO ///// 9SM OVC017 M19/M22 A3014 RMK AO1 SLP284
METAR CYNL 190800Z AUTO 20005KT 9SM OVC019 M20/M23 A3014 RMK AO1 PRESFR SLP281
METAR CYNL 190700Z AUTO 21004KT 9SM OVC020 M19/M23 A3017 RMK AO1 PRESFR SLP294
METAR CYNL 190600Z AUTO 23003KT 9SM OVC021 M19/M23 A3020 RMK AO1 SLP303
METAR CYNL 190500Z AUTO 00000KT 9SM OVC023 M19/M23 A3022 RMK AO1 SLP310
SPECI CYNL 190437Z AUTO 26003KT 9SM OVC024 M19/M23 A3022 RMK AO1 SLP314
METAR CYNL 190400Z AUTO 30003KT 9SM OVC025 M19/M23 A3022 RMK AO1 SLP312
SPECI CYNL 190315Z AUTO 00000KT 9SM OVC029 M20/M23 A3023 RMK AO1 SLP314
METAR CYNL 190300Z AUTO 33002KT 9SM OVC032 M20/M23 A3023 RMK AO1 SLP314
METAR CYNL 190200Z AUTO 35003KT 9SM OVC040 M20/M23 A3022 RMK AO1 SLP311
METAR CYNL 190100Z AUTO 01004KT 9SM OVC049 M20/M23 A3021 RMK AO1 SLP310
METAR CYNL 190000Z AUTO ///// 9SM OVC056 M20/M23 A3020 RMK AO1 PRESRR SLP307
METAR CYNL 182300Z AUTO 01004KT 9SM OVC056 M20/M23 A3018 RMK AO1 PRESRR SLP298
METAR CYNL 182200Z AUTO 02005KT 9SM OVC064 M19/M23 A3014 RMK AO1 PRESRR SLP283
SPECI CYNL 182128Z AUTO 01004KT 9SM FEW007 SCT016 OVC068 M19/M22 A3012 RMK AO1 PRESRR SLP278
SPECI CYNL 182123Z AUTO 03004KT 9SM FEW007 SCT016 BKN022 M19/M22 A3012 RMK AO1 PRESRR SLP278
SPECI CYNL 182122Z AUTO 03005KT 9SM FEW007 SCT016 BKN025 M19/M22 A3012 RMK AO1 PRESRR SLP278
SPECI CYNL 182116Z AUTO 02004KT 9SM FEW009 SCT016 BKN023 M19/M22 A3012 RMK AO1 PRESRR SLP277
METAR CYNL 182100Z AUTO 03005KT 4SM VV022 M19/M22 A3011 RMK AO1 PRESRR SLP275
SPECI CYNL 182041Z AUTO 02004KT 6SM VV015 M19/M22 A3010 RMK AO1 SLP273
SPECI CYNL 182038Z AUTO 01005KT 9SM VV010 M19/M22 A3010 RMK AO1 SLP272
SPECI CYNL 182030Z AUTO 05004KT 9SM VV008 M19/M22 A3009 RMK AO1 SLP270
SPECI CYNL 182019Z AUTO 06004KT 9SM FEW008 M19/M22 A3009 RMK AO1 SLP269
METAR CYNL 182000Z AUTO 03002KT 9SM SCT090 M19/M22 A3009 RMK AO1 SLP268
SPECI CYNL 181930Z AUTO 06003KT 9SM SCT015 BKN094 M19/M23 A3007 RMK AO1 PRESRR SLP264
METAR CYNL 181900Z AUTO 05005KT 9SM SCT015 BKN026 M20/M23 A3007 RMK AO1 PRESRR SLP262
SPECI CYNL 181843Z AUTO 04003KT 9SM SCT014 BKN026 M19/M23 A3006 RMK AO1 PRESRR SLP262
METAR CYNL 181800Z AUTO 08005KT 9SM BKN040 M20/M23 A3003 RMK AO1 PRESRR SLP253
METAR CYNL 181700Z AUTO 05003KT 9SM SCT035 M21/M24 A3000 RMK AO1 PRESRR SLP247
METAR CYNL 181600Z AUTO 06003KT 9SM OVC036 M20/M24 A2997 RMK AO1 SLP235
SPECI CYNL 181520Z AUTO 06002KT 9SM OVC030 M20/M24 A2995 RMK AO1 PRESRR SLP229
METAR CYNL 181500Z AUTO 03002KT 9SM OVC028 M21/M24 A2995 RMK AO1 PRESRR SLP229
SPECI CYNL 181442Z AUTO 05002KT 9SM BKN028 M21/M24 A2995 RMK AO1 SLP228
METAR CYNL 181400Z AUTO 07003KT 9SM OVC084 M21/M24 A2993 RMK AO1 SLP219
METAR CYNL 181300Z AUTO 00000KT 9SM SCT014 OVC088 M21/M24 A2992 RMK AO1 SLP214
SPECI CYNL 181255Z AUTO VRB02KT 7SM SCT014 OVC090 M21/M24 A2992 RMK AO1 SLP214
SPECI CYNL 181245Z AUTO 16002KT 3SM VV014 M20/M24 A2991 RMK AO1 SLP211
SPECI CYNL 181241Z AUTO 16004KT 2SM VV014 M20/M24 A2991 RMK AO1 SLP211
SPECI CYNL 181217Z AUTO 08002KT 1 3/4SM VV012 M20/M23 A2993 RMK AO1 SLP216
SPECI CYNL 181211Z AUTO 00000KT 2SM VV014 M20/M23 A2993 RMK AO1 SLP216
SPECI CYNL 181210Z AUTO 00000KT 2SM VV015 M20/M23 A2993 RMK AO1 SLP215
METAR CYNL 181200Z AUTO 00000KT 1 1/2SM VV015 M20/M24 A2993 RMK AO1 SLP216
SPECI CYNL 181151Z AUTO 00000KT 1 1/2SM VV015 M20/M24 A2993 RMK AO1 SLP216
SPECI CYNL 181148Z AUTO 00000KT 1 1/4SM VV015 M20/M24 A2993 RMK AO1 SLP216
SPECI CYNL 181136Z AUTO 00000KT 1 1/4SM VV013 M20/M24 A2993 RMK AO1 SLP215
SPECI CYNL 181133Z AUTO 00000KT 1 1/2SM VV013 M20/M24 A2993 RMK AO1 SLP214
SPECI CYNL 181132Z AUTO 00000KT 1 1/4SM VV014 M20/M24 A2993 RMK AO1 SLP214
SPECI CYNL 181123Z AUTO 10002KT 1 1/2SM VV014 M20/M24 A2993 RMK AO1 SLP214
SPECI CYNL 181112Z AUTO 09002KT 1 3/4SM VV018 M20/M24 A2992 RMK AO1 SLP213
SPECI CYNL 181108Z AUTO 08003KT 2SM VV017 M20/M24 A2992 RMK AO1 SLP213
SPECI CYNL 181105Z AUTO 07003KT 1 3/4SM VV018 M20/M23 A2993 RMK AO1 SLP214
METAR CYNL 181100Z AUTO 00000KT 2SM VV019 M20/M23 A2992 RMK AO1 SLP213
SPECI CYNL 181056Z AUTO 00000KT 2SM VV019 M20/M23 A2992 RMK AO1 SLP211
SPECI CYNL 181053Z AUTO 00000KT 1 3/4SM VV019 M20/M24 A2992 RMK AO1 SLP211
SPECI CYNL 181045Z AUTO 00000KT 2SM VV019 M20/M24 A2992 RMK AO1 SLP210
SPECI CYNL 181032Z AUTO 00000KT 1 1/2SM FEW004 BKN018 OVC025 M20/M24 A2992 RMK AO1 SLP210
SPECI CYNL 181029Z AUTO 00000KT 1 1/4SM FEW004 BKN018 OVC025 M20/M24 A2992 RMK AO1 SLP210
SPECI CYNL 181028Z AUTO 00000KT 1 1/2SM FEW002 SCT019 OVC025 M21/M24 A2992 RMK AO1 SLP210
SPECI CYNL 181020Z AUTO 00000KT 1 1/2SM FEW006 OVC024 M21/M24 A2992 RMK AO1 SLP212
SPECI CYNL 181019Z AUTO 00000KT 1 3/4SM FEW006 OVC025 M21/M24 A2992 RMK AO1 SLP212
SPECI CYNL 181017Z AUTO 00000KT 2SM VV024 M21/M24 A2992 RMK AO1 SLP212
SPECI CYNL 181013Z AUTO 00000KT 2SM VV026 M21/M24 A2993 RMK AO1 SLP213
SPECI CYNL 181009Z AUTO 00000KT 1 3/4SM VV027 M21/M24 A2993 RMK AO1 SLP213
SPECI CYNL 181006Z AUTO 00000KT 2 1/2SM VV023 M21/M24 A2993 RMK AO1 SLP213
SPECI CYNL 181004Z AUTO 00000KT 3SM VV023 M21/M24 A2993 RMK AO1 SLP213
SPECI CYNL 181001Z AUTO 00000KT 2SM VV023 M21/M24 A2993 RMK AO1 SLP214
METAR CYNL 181000Z AUTO 00000KT 2SM VV025 M21/M24 A2993 RMK AO1 SLP214
SPECI CYNL 180947Z AUTO 00000KT 2 1/2SM VV024 M21/M25 A2993 RMK AO1 PRESFR SLP211
SPECI CYNL 180945Z AUTO 00000KT 2 1/2SM VV025 M21/M25 A2993 RMK AO1 PRESFR SLP211
SPECI CYNL 180933Z AUTO 00000KT 9SM VV026 M22/M25 A2992 RMK AO1 PRESFR SLP210
SPECI CYNL 180910Z AUTO 17003KT 9SM FEW008 BKN070 M22/M26 A2992 RMK AO1 PRESFR SLP209
METAR CYNL 180900Z AUTO 00000KT 9SM OVC070 M22/M26 A2992 RMK AO1 PRESFR SLP210
SPECI CYNL 180837Z AUTO 14003KT 9SM SCT013 OVC074 M22/M26 A2992 RMK AO1 SLP212
SPECI CYNL 180830Z AUTO 15003KT 4SM FEW009 BKN013 OVC074 M22/M26 A2993 RMK AO1 SLP214
SPECI CYNL 180829Z AUTO 15003KT 3SM VV012 M22/M26 A2993 RMK AO1 SLP215
SPECI CYNL 180826Z AUTO 16002KT 2SM VV013 M22/M26 A2993 RMK AO1 SLP215
SPECI CYNL 180821Z AUTO 19003KT 1 1/2SM VV013 M23/M26 A2994 RMK AO1 SLP217
METAR CYNL 180800Z AUTO 00000KT 1 1/4SM VV013 M23/M26 A2994 RMK AO1 SLP219
SPECI CYNL 180746Z AUTO 00000KT 1 1/4SM VV014 M23/M27 A2994 RMK AO1 SLP222
SPECI CYNL 180744Z AUTO ///// 2 1/2SM VV016 M23/M27 A2995 RMK AO1 SLP223
METAR CYNL 180700Z AUTO 00000KT 9SM OVC037 M25/M28 A2994 RMK AO1 SLP221
METAR CYNL 180600Z AUTO 00000KT 9SM CLR M27/M31 A2993 RMK AO1 SLP223
METAR CYNL 180500Z AUTO 17003KT 9SM CLR M28/M31 A2992 RMK AO1 SLP221
METAR CYNL 180400Z AUTO 16003KT 9SM CLR M27/M30 A2993 RMK AO1 SLP224
METAR CYNL 180300Z AUTO 18003KT 9SM CLR M26/M30 A2993 RMK AO1 SLP225
METAR CYNL 180200Z AUTO 18003KT 9SM CLR M24/M27 A2993 RMK AO1 SLP224
METAR CYNL 180100Z AUTO 15003KT 9SM CLR M23/M26 A2993 RMK AO1 SLP224
METAR CYNL 180000Z AUTO 14003KT 9SM CLR M22/M26 A2993 RMK AO1 SLP221
METAR CYNL 172300Z AUTO 15003KT 9SM CLR M21/M24 A2992 RMK AO1 SLP217
METAR CYNL 172200Z AUTO 16005KT 9SM CLR M20/M23 A2991 RMK AO1 SLP213
METAR CYNL 172100Z AUTO 17005KT 9SM CLR M19/M23 A2991 RMK AO1 SLP214
METAR CYNL 172000Z AUTO 16005KT 9SM CLR M20/M24 A2991 RMK AO1 SLP219
METAR CYNL 171900Z AUTO 16004KT 9SM CLR M21/M24 A2992 RMK AO1 SLP221
METAR CYNL 171800Z AUTO 17005KT 9SM CLR M22/M26 A2993 RMK AO1 SLP228
SPECI CYNL 171710Z AUTO ///// 3SM CLR M24/M27 A2994 RMK AO1 SLP232
SPECI CYNL 171708Z AUTO ///// 2SM CLR M24/M27 A2994 RMK AO1 SLP232
METAR CYNL 171700Z AUTO ///// 7SM CLR M24/M28 A2994 RMK AO1 SLP232
METAR CYNL 171600Z AUTO ///// 9SM CLR M25/M28 A2995 RMK AO1 SLP232
METAR CYNL 171500Z AUTO 15003KT 9SM CLR M25/M29 A2996 RMK AO1 SLP235
METAR CYNL 171400Z AUTO 16005KT 9SM CLR M25/M29 A2997 RMK AO1 SLP239
METAR CYNL 171300Z AUTO 15005KT 9SM CLR M26/M29 A2998 RMK AO1 PRESFR SLP241
METAR CYNL 171200Z AUTO 16003KT 9SM CLR M26/M29 A3000 RMK AO1 SLP248
METAR CYNL 171100Z AUTO 15005KT 9SM CLR M26/M30 A3001 RMK AO1 SLP251
METAR CYNL 171000Z AUTO 11003KT 9SM CLR M27/M31 A3001 RMK AO1 SLP250
METAR CYNL 170900Z AUTO 10002KT 9SM CLR M29/M33 A3002 RMK AO1 SLP251
METAR CYNL 170800Z AUTO 08003KT 9SM CLR M28/M32 A3002 RMK AO1 SLP249
METAR CYNL 170700Z AUTO 09003KT 9SM CLR M28/M32 A3002 RMK AO1 SLP250
METAR CYNL 170600Z AUTO 12002KT 9SM CLR M27/M31 A3004 RMK AO1 SLP256
METAR CYNL 170500Z AUTO ///// 9SM CLR M26/M29 A3004 RMK AO1 SLP254
METAR CYNL 170400Z AUTO 07005KT 9SM CLR M26/M29 A3004 RMK AO1 SLP250
METAR CYNL 170300Z AUTO 03003KT 9SM CLR M25/M28 A3004 RMK AO1 SLP249
METAR CYNL 170200Z AUTO 00000KT 9SM CLR M24/M27 A3002 RMK AO1 SLP241
METAR CYNL 170100Z AUTO 03005KT 9SM CLR M23/M26 A3001 RMK AO1 SLP234
METAR CYNL 170000Z AUTO ///// 9SM CLR M22/M25 A2999 RMK AO1 SLP226
METAR CYNL 162300Z AUTO ///// 9SM CLR M20/M23 A2998 RMK AO1 PRESRR SLP220
METAR CYNL 162200Z AUTO 02006KT 9SM CLR M18/M21 A2995 RMK AO1 PRESRR SLP206
METAR CYNL 162100Z AUTO 01005KT 9SM CLR M17/M20 A2991 RMK AO1 PRESRR SLP190
METAR CYNL 162000Z AUTO 00008KT 9SM CLR M16/M20 A2989 RMK AO1 PRESRR SLP181
METAR CYNL 161900Z AUTO 02010KT 9SM CLR M17/M20 A2985 RMK AO1 PRESRR SLP169
METAR CYNL 161800Z AUTO 02008KT 9SM CLR M16/M20 A2983 RMK AO1 PRESRR SLP162
METAR CYNL 161700Z AUTO 02008KT 9SM CLR M16/M19 A2979 RMK AO1 PRESRR SLP149
METAR CYNL 161600Z AUTO 02008KT 9SM CLR M16/M19 A2974 RMK AO1 PRESRR SLP133
SPECI CYNL 161516Z AUTO 03012KT 9SM SCT007 M15/M18 A2971 RMK AO1 PRESRR SLP119
SPECI CYNL 161512Z AUTO 03011G17KT 9SM VV007 M15/M18 A2971 RMK AO1 PRESRR SLP119
METAR CYNL 161500Z AUTO 02008KT 9SM FEW007 M15/M18 A2970 RMK AO1 PRESRR SLP117
SPECI CYNL 161449Z AUTO 03011KT 9SM SCT007 M15/M18 A2970 RMK AO1 PRESRR SLP115
SPECI CYNL 161447Z AUTO 03011KT 9SM BKN007 M15/M18 A2969 RMK AO1 PRESRR SLP114
SPECI CYNL 161439Z AUTO 03010G17KT 9SM SCT008 BKN011 M15/M17 A2969 RMK AO1 PRESRR SLP113
SPECI CYNL 161421Z AUTO 02011KT 9SM VV009 M14/M17 A2967 RMK AO1 PRESRR SLP103
SPECI CYNL 161413Z AUTO 02009KT 5SM VV010 M14/M16 A2966 RMK AO1 PRESRR SLP102
SPECI CYNL 161404Z AUTO 02007KT 4SM VV006 M14/M16 A2966 RMK AO1 PRESRR SLP100
METAR CYNL 161400Z AUTO 03009KT 5SM FEW005 M14/M16 A2965 RMK AO1 PRESRR SLP099
SPECI CYNL 161331Z AUTO 03009KT 9SM SCT008 M14/M16 A2964 RMK AO1 PRESRR SLP093
SPECI CYNL 161306Z AUTO 03006KT 3SM VV007 M13/M16 A2962 RMK AO1 PRESRR SLP088
METAR CYNL 161300Z AUTO 04007KT 2SM VV007 M13/M16 A2962 RMK AO1 PRESRR SLP087
SPECI CYNL 161259Z AUTO 03008KT 2SM VV007 M13/M16 A2962 RMK AO1 PRESRR SLP087
SPECI CYNL 161256Z AUTO 03007KT 1 3/4SM VV008 M13/M15 A2962 RMK AO1 PRESRR SLP087
SPECI CYNL 161251Z AUTO 03006KT 2 1/2SM VV009 M13/M15 A2962 RMK AO1 PRESRR SLP086
SPECI CYNL 161245Z AUTO 03006KT 3SM VV009 M13/M15 A2961 RMK AO1 PRESRR SLP085
SPECI CYNL 161244Z AUTO 04005KT 2 1/2SM VV009 M13/M15 A2961 RMK AO1 PRESRR SLP085
SPECI CYNL 161242Z AUTO 04005KT 2 1/2SM VV011 M13/M15 A2961 RMK AO1 PRESRR SLP084
SPECI CYNL 161232Z AUTO 05007KT 3SM VV012 M13/M15 A2960 RMK AO1 PRESRR SLP081
SPECI CYNL 161230Z AUTO 04008KT 2 1/2SM VV013 M13/M15 A2960 RMK AO1 PRESRR SLP081
SPECI CYNL 161224Z AUTO 05007KT 3SM VV012 M13/M15 A2960 RMK AO1 PRESRR SLP081
SPECI CYNL 161223Z AUTO 04007KT 2SM VV011 M13/M15 A2960 RMK AO1 PRESRR SLP081
SPECI CYNL 161214Z AUTO 04007KT 1 3/4SM VV014 M13/M15 A2960 RMK AO1 PRESRR SLP079
SPECI CYNL 161211Z AUTO 05005KT 2 1/2SM VV015 M13/M15 A2960 RMK AO1 PRESRR SLP078
SPECI CYNL 161209Z AUTO 05006KT 2 1/2SM BKN010 OVC015 M13/M15 A2959 RMK AO1 PRESRR SLP078
METAR CYNL 161200Z AUTO 05007KT 9SM OVC010 M13/M15 A2959 RMK AO1 PRESRR SLP077
SPECI CYNL 161133Z AUTO 05008KT 9SM SCT009 OVC012 M13/M15 A2958 RMK AO1 SLP074
METAR CYNL 161100Z AUTO 05008KT 9SM BKN008 OVC011 M12/M14 A2956 RMK AO1 SLP067
SPECI CYNL 161047Z AUTO 06009KT 9SM BKN008 OVC011 M12/M14 A2956 RMK AO1 SLP065
SPECI CYNL 161020Z AUTO 06007KT 7SM FEW007 OVC011 M12/M14 A2955 RMK AO1 SLP062
METAR CYNL 161000Z AUTO 07006KT 9SM OVC011 M11/M13 A2955 RMK AO1 SLP060
METAR CYNL 160900Z AUTO 07005KT 9SM OVC013 M11/M13 A2953 RMK AO1 SLP054
SPECI CYNL 160825Z AUTO 08004KT 9SM OVC014 M11/M13 A2953 RMK AO1 SLP053
METAR CYNL 160800Z AUTO 11004KT 9SM OVC016 M11/M13 A2953 RMK AO1 SLP053
METAR CYNL 160700Z AUTO 10005KT 9SM OVC017 M12/M14 A2954 RMK AO1 SLP056
SPECI CYNL 160604Z AUTO 12005KT 9SM BKN016 OVC032 M12/M14 A2956 RMK AO1 PRESFR SLP064
METAR CYNL 160600Z AUTO 14004KT 9SM SCT016 OVC033 M12/M14 A2957 RMK AO1 PRESFR SLP065
SPECI CYNL 160552Z AUTO 14005KT 4SM SCT016 OVC037 M12/M14 A2957 RMK AO1 PRESFR SLP067
SPECI CYNL 160551Z AUTO 13005KT 3SM VV016 M12/M14 A2957 RMK AO1 PRESFR SLP067
SPECI CYNL 160550Z AUTO 13006KT 2SM VV016 M12/M14 A2957 RMK AO1 PRESFR SLP067
SPECI CYNL 160542Z AUTO 12005KT 1 1/2SM VV021 M12/M14 A2957 RMK AO1 PRESFR SLP068
SPECI CYNL 160541Z AUTO 12006KT 1 3/4SM FEW007 SCT026 OVC038 M12/M14 A2957 RMK AO1 PRESFR SLP068
SPECI CYNL 160527Z AUTO 12005KT 9SM SCT008 OVC038 M12/M14 A2957 RMK AO1 PRESFR SLP070
METAR CYNL 160500Z AUTO 13005KT 9SM FEW002 BKN007 BKN018 M12/M14 A2959 RMK AO1 PRESFR SLP075
SPECI CYNL 160455Z AUTO 13005KT 4SM FEW002 BKN007 OVC018 M12/M14 A2959 RMK AO1 PRESFR SLP077
SPECI CYNL 160454Z AUTO 14005KT 3SM VV013 M12/M14 A2959 RMK AO1 PRESFR SLP078
SPECI CYNL 160453Z AUTO 14006KT 2SM VV012 M12/M14 A2959 RMK AO1 PRESFR SLP078
SPECI CYNL 160452Z AUTO 13005KT 2SM FEW002 BKN007 BKN012 M12/M14 A2959 RMK AO1 PRESFR SLP078
SPECI CYNL 160451Z AUTO 13006KT 1 3/4SM FEW002 BKN007 OVC018 M12/M14 A2959 RMK AO1 PRESFR SLP079
SPECI CYNL 160449Z AUTO 13006KT 2 1/2SM FEW002 BKN007 OVC018 M12/M14 A2959 RMK AO1 PRESFR SLP080
SPECI CYNL 160444Z AUTO 13005KT 3SM OVC007 M12/M14 A2960 RMK AO1 PRESFR SLP082
SPECI CYNL 160440Z AUTO 13006KT 2 1/2SM OVC006 M12/M14 A2960 RMK AO1 PRESFR SLP083
METAR CYNL 160400Z AUTO 14007KT 9SM OVC007 M12/M14 A2962 RMK AO1 PRESFR SLP090
SPECI CYNL 160303Z AUTO 13006KT 3SM OVC007 M12/M14 A2966 RMK AO1 PRESFR SLP104
METAR CYNL 160300Z AUTO 12006KT 2 1/2SM BKN007 OVC008 M12/M14 A2966 RMK AO1 PRESFR SLP105
SPECI CYNL 160248Z AUTO 13006KT 2 1/2SM OVC008 M12/M14 A2967 RMK AO1 PRESFR SLP108
SPECI CYNL 160220Z AUTO 15007KT 9SM BKN009 OVC046 M12/M15 A2968 RMK AO1 PRESFR SLP114
SPECI CYNL 160204Z AUTO 14007KT 9SM FEW009 SCT040 BKN047 M12/M15 A2969 RMK AO1 PRESFR SLP115
METAR CYNL 160200Z AUTO 14008KT 9SM FEW026 BKN047 M12/M15 A2969 RMK AO1 PRESFR SLP116
METAR CYNL 160100Z AUTO 13007KT 9SM FEW066 M13/M15 A2972 RMK AO1 PRESFR SLP127
METAR CYNL 160000Z AUTO 12007KT 9SM FEW074 M14/M16 A2977 RMK AO1 PRESFR SLP146
METAR CYNL 152300Z AUTO 15005KT 9SM CLR M14/M16 A2981 RMK AO1 PRESFR SLP163
METAR CYNL 152200Z AUTO 14004KT 9SM CLR M13/M15 A2984 RMK AO1 PRESFR SLP175
METAR CYNL 152100Z AUTO 15005KT 9SM FEW006 M12/M14 A2988 RMK AO1 PRESFR SLP186
SPECI CYNL 152043Z AUTO 15005KT 9SM SCT005 M11/M13 A2988 RMK AO1 PRESFR SLP184
SPECI CYNL 152026Z AUTO 15005KT 9SM OVC005 M11/M13 A2989 RMK AO1 PRESFR SLP186
METAR CYNL 152000Z AUTO 17005KT 9SM OVC004 M10/M12 A2991 RMK AO1 PRESFR SLP190
METAR CYNL 151900Z AUTO 16002KT 9SM OVC004 M11/M13 A2994 RMK AO1 PRESFR SLP203
SPECI CYNL 151803Z AUTO 00000KT 9SM SCT003 OVC006 M13/M15 A2999 RMK AO1 PRESFR SLP221
METAR CYNL 151800Z AUTO 22003KT 9SM BKN003 OVC006 M13/M15 A2999 RMK AO1 PRESFR SLP222
SPECI CYNL 151757Z AUTO 00000KT 9SM BKN003 OVC006 M13/M15 A2999 RMK AO1 SLP223
SPECI CYNL 151756Z AUTO 00000KT 2 1/2SM BKN003 OVC006 M13/M15 A2999 RMK AO1 SLP223
SPECI CYNL 151755Z AUTO 22003KT 1SM BKN003 OVC006 M13/M15 A2999 RMK AO1 SLP223
SPECI CYNL 151754Z AUTO 23003KT 5/8SM OVC003 M13/M15 A2999 RMK AO1 SLP223
SPECI CYNL 151752Z AUTO 23002KT 1 1/4SM OVC003 M14/M15 A2999 RMK AO1 SLP224
SPECI CYNL 151751Z AUTO 23002KT 2 1/2SM OVC003 M14/M16 A2999 RMK AO1 SLP224
METAR CYNL 151700Z AUTO 23003KT 9SM SCT004 OVC028 M15/M17 A3002 RMK AO1 SLP236
SPECI CYNL 151654Z AUTO 23003KT 9SM BKN004 OVC029 M15/M17 A3002 RMK AO1 PRESFR SLP238
SPECI CYNL 151640Z AUTO 23003KT 9SM FEW004 BKN029 M15/M18 A3003 RMK AO1 PRESFR SLP240
SPECI CYNL 151630Z AUTO 24004KT 9SM BKN029 M16/M18 A3003 RMK AO1 PRESFR SLP241
SPECI CYNL 151618Z AUTO 22002KT 9SM FEW015 SCT029 M16/M18 A3003 RMK AO1 PRESFR SLP241
SPECI CYNL 151617Z AUTO 22003KT 9SM FEW015 BKN029 M16/M18 A3003 RMK AO1 PRESFR SLP241
METAR CYNL 151600Z AUTO 24004KT 9SM SCT030 BKN170 M16/M19 A3004 RMK AO1 PRESFR SLP244
SPECI CYNL 151541Z AUTO 24003KT 9SM SCT003 BKN031 OVC170 M17/M19 A3005 RMK AO1 PRESFR SLP250
SPECI CYNL 151537Z AUTO 24003KT 9SM SCT003 BKN017 OVC170 M17/M19 A3005 RMK AO1 PRESFR SLP250
METAR CYNL 151500Z AUTO 00000KT 9SM BKN003 BKN004 OVC020 M17/M20 A3006 RMK AO1 PRESFR SLP253
SPECI CYNL 151444Z AUTO 24002KT 9SM VV004 M18/M20 A3007 RMK AO1 PRESFR SLP255
SPECI CYNL 151412Z AUTO 21003KT 9SM OVC005 M18/M20 A3008 RMK AO1 PRESFR SLP259
METAR CYNL 151400Z AUTO 00000KT 9SM OVC004 M18/M21 A3009 RMK AO1 PRESFR SLP263
METAR CYNL 151300Z AUTO 24002KT 9SM SCT004 BKN006 OVC048 M19/M21 A3012 RMK AO1 SLP274
SPECI CYNL 151252Z AUTO 23002KT 9SM FEW004 BKN006 OVC048 M19/M22 A3012 RMK AO1 SLP273
SPECI CYNL 151250Z AUTO 23003KT 9SM SCT006 OVC048 M19/M22 A3012 RMK AO1 SLP273
SPECI CYNL 151236Z AUTO 24004KT 9SM BKN007 OVC048 M19/M22 A3012 RMK AO1 SLP274
SPECI CYNL 151223Z AUTO 23003KT 9SM FEW006 SCT008 OVC049 M20/M22 A3012 RMK AO1 SLP276
SPECI CYNL 151214Z AUTO 26002KT 9SM BKN007 OVC049 M20/M23 A3013 RMK AO1 SLP278
SPECI CYNL 151204Z AUTO 25005KT 9SM SCT006 OVC049 M21/M24 A3013 RMK AO1 SLP280
METAR CYNL 151200Z AUTO 23005KT 9SM BKN007 OVC050 M21/M24 A3014 RMK AO1 SLP281
SPECI CYNL 151136Z AUTO 25004KT 9SM SCT007 BKN009 M21/M24 A3014 RMK AO1 SLP282
SPECI CYNL 151122Z AUTO 23004KT 9SM FEW009 M22/M25 A3014 RMK AO1 SLP283
METAR CYNL 151100Z AUTO 22002KT 9SM CLR M22/M25 A3015 RMK AO1 SLP285
METAR CYNL 151000Z AUTO 20003KT 9SM CLR M21/M24 A3016 RMK AO1 SLP290
METAR CYNL 150900Z AUTO 27003KT 9SM CLR M19/M22 A3018 RMK AO1 SLP290
METAR CYNL 150800Z AUTO 21003KT 9SM OVC076 M18/M21 A3017 RMK AO1 SLP285
METAR CYNL 150700Z AUTO 23003KT 9SM OVC078 M20/M23 A3019 RMK AO1 SLP289
METAR CYNL 150600Z AUTO 20002KT 9SM BKN068 OVC082 M19/M22 A3020 RMK AO1 SLP293
METAR CYNL 150500Z AUTO 26002KT 9SM BKN076 M20/M23 A3021 RMK AO1 SLP296
METAR CYNL 150400Z AUTO 25002KT 9SM OVC064 M20/M23 A3022 RMK AO1 SLP296
METAR CYNL 150300Z AUTO 00000KT 9SM BKN066 M19/M22 A3022 RMK AO1 SLP293
METAR CYNL 150200Z AUTO 33003KT 9SM CLR M18/M22 A3021 RMK AO1 SLP286
METAR CYNL 150100Z AUTO ///// 9SM CLR M18/M21 A3021 RMK AO1 PRESRR SLP286
METAR CYNL 150000Z AUTO 33004KT 9SM CLR M17/M20 A3018 RMK AO1 PRESRR SLP276
METAR CYNL 142300Z AUTO ///// 9SM CLR M16/M19 A3015 RMK AO1 PRESRR SLP264
METAR CYNL 142200Z AUTO 33005KT 9SM CLR M15/M18 A3012 RMK AO1 PRESRR SLP253
METAR CYNL 142100Z AUTO 33012G19KT 9SM FEW006 M13/M17 A3007 RMK AO1 PRESRR SLP232
SPECI CYNL 142045Z AUTO 32009KT 9SM SCT006 M13/M16 A3005 RMK AO1 PRESRR SLP226
SPECI CYNL 142039Z AUTO 32006G15KT 9SM SCT006 BKN011 M13/M16 A3005 RMK AO1 PRESRR SLP223
SPECI CYNL 142027Z AUTO 33010G17KT 9SM VV007 M12/M15 A3003 RMK AO1 PRESRR SLP217
SPECI CYNL 142021Z AUTO 33009KT 9SM SCT005 BKN011 M12/M15 A3002 RMK AO1 PRESRR SLP214
SPECI CYNL 142020Z AUTO 33009KT 9SM SCT005 BKN082 M12/M15 A3002 RMK AO1 PRESRR SLP213
SPECI CYNL 142017Z AUTO 33009KT 9SM VV005 M12/M15 A3001 RMK AO1 PRESRR SLP211
METAR CYNL 142000Z AUTO 34011G18KT 9SM FEW006 SCT080 M12/M15 A3000 RMK AO1 PRESRR SLP206
SPECI CYNL 141906Z AUTO 35013KT 9SM FEW006 SCT009 BKN060 M12/M14 A2995 RMK AO1 PRESRR SLP191
SPECI CYNL 141904Z AUTO 35009G16KT 9SM FEW006 SCT009 BKN016 M11/M14 A2995 RMK AO1 PRESRR SLP191
METAR CYNL 141900Z AUTO 34010G16KT 9SM FEW006 BKN009 BKN022 M11/M14 A2995 RMK AO1 PRESRR SLP191
SPECI CYNL 141848Z AUTO 34008G18KT 7SM VV009 M11/M14 A2995 RMK AO1 PRESRR SLP189
SPECI CYNL 141841Z AUTO 34011G17KT 3SM VV013 M11/M14 A2994 RMK AO1 PRESRR SLP186
SPECI CYNL 141834Z AUTO 34012G19KT 3SM VV022 M11/M14 A2994 RMK AO1 PRESRR SLP186
SPECI CYNL 141828Z AUTO 34006G16KT 2 1/2SM VV015 M11/M14 A2993 RMK AO1 PRESRR SLP184
SPECI CYNL 141827Z AUTO 34007G16KT 2 1/2SM VV013 M11/M14 A2993 RMK AO1 PRESRR SLP183
SPECI CYNL 141823Z AUTO 34012KT 1 3/4SM VV010 M11/M14 A2993 RMK AO1 PRESRR SLP183
SPECI CYNL 141822Z AUTO 34011G16KT 2SM VV009 M11/M14 A2993 RMK AO1 PRESRR SLP183
SPECI CYNL 141818Z AUTO 34007G16KT 2 1/2SM VV010 M11/M13 A2993 RMK AO1 PRESRR SLP181
SPECI CYNL 141817Z AUTO 34009G16KT 3SM VV010 M11/M13 A2993 RMK AO1 PRESRR SLP181
SPECI CYNL 141816Z AUTO 33010G16KT 2 1/2SM VV010 M11/M13 A2993 RMK AO1 PRESRR SLP181
SPECI CYNL 141814Z AUTO 33010G18KT 3SM VV010 M11/M13 A2992 RMK AO1 PRESRR SLP180
SPECI CYNL 141813Z AUTO 33010G18KT 2 1/2SM VV010 M11/M13 A2992 RMK AO1 PRESRR SLP180
SPECI CYNL 141812Z AUTO 33010G18KT 2 1/2SM VV009 M11/M13 A2992 RMK AO1 PRESRR SLP180
SPECI CYNL 141801Z AUTO 33011G16KT 4SM VV009 M10/M13 A2991 RMK AO1 PRESRR SLP174
METAR CYNL 141800Z AUTO 33008G16KT 6SM VV010 M10/M13 A2991 RMK AO1 PRESRR SLP173
SPECI CYNL 141726Z AUTO 34009G18KT 5SM SCT008 BKN011 OVC044 M10/M12 A2987 RMK AO1 PRESRR SLP162
SPECI CYNL 141720Z AUTO 35010G19KT 6SM VV009 M10/M12 A2987 RMK AO1 PRESRR SLP160
SPECI CYNL 141711Z AUTO 35012G19KT 7SM SCT007 OVC010 M09/M11 A2986 RMK AO1 PRESRR SLP158
METAR CYNL 141700Z AUTO 35011G17KT 4SM BKN006 OVC008 M09/M11 A2985 RMK AO1 PRESRR SLP153
METAR CYNL 141600Z AUTO 35009G18KT 9SM OVC006 M07/M08 A2978 RMK AO1 PRESRR SLP127
SPECI CYNL 141518Z AUTO 35012G21KT 9SM OVC005 M05/M06 A2975 RMK AO1 PRESRR SLP111
METAR CYNL 141500Z AUTO 32008G18KT 8SM OVC004 M05/M05 A2973 RMK AO1 PRESRR SLP104
SPECI CYNL 141431Z AUTO 32007G16KT 3SM OVC004 M05/M05 A2971 RMK AO1 PRESRR SLP097
SPECI CYNL 141427Z AUTO 33008G16KT 3SM OVC005 M05/M05 A2971 RMK AO1 PRESRR SLP096
SPECI CYNL 141424Z AUTO 32009G16KT 2 1/2SM OVC005 M05/M06 A2970 RMK AO1 PRESRR SLP096
METAR CYNL 141400Z AUTO 31009KT 9SM OVC006 M05/M06 A2969 RMK AO1 PRESRR SLP089
SPECI CYNL 141319Z AUTO 32010G18KT 3SM OVC006 M04/M05 A2967 RMK AO1 PRESRR SLP082
SPECI CYNL 141318Z AUTO 31010G18KT 2 1/2SM OVC006 M04/M05 A2967 RMK AO1 PRESRR SLP082
SPECI CYNL 141316Z AUTO 31011G17KT 1 3/4SM OVC006 M04/M05 A2967 RMK AO1 PRESRR SLP082
SPECI CYNL 141314Z AUTO 32009G17KT 2 1/2SM OVC006 M04/M05 A2966 RMK AO1 PRESRR SLP081
METAR CYNL 141300Z AUTO 31010G16KT 4SM OVC005 M04/M05 A2965 RMK AO1 PRESRR SLP078
SPECI CYNL 141259Z AUTO 32010G16KT 3SM OVC005 M04/M05 A2966 RMK AO1 PRESRR SLP078
SPECI CYNL 141256Z AUTO 32007G16KT 2SM OVC005 M04/M05 A2965 RMK AO1 PRESRR SLP077
SPECI CYNL 141253Z AUTO 31011G17KT 1 3/4SM OVC005 M04/M05 A2965 RMK AO1 PRESRR SLP077
SPECI CYNL 141252Z AUTO 32010G17KT 2SM OVC005 M04/M05 A2965 RMK AO1 PRESRR SLP076
SPECI CYNL 141246Z AUTO 31009G17KT 1 1/2SM OVC005 M04/M05 A2965 RMK AO1 PRESRR SLP075
SPECI CYNL 141238Z AUTO 31007G16KT 2SM OVC005 M04/M05 A2964 RMK AO1 PRESRR SLP073
SPECI CYNL 141231Z AUTO 30009KT 1 1/2SM OVC005 M04/M05 A2964 RMK AO1 PRESRR SLP072
SPECI CYNL 141228Z AUTO 30010KT 1 1/4SM OVC005 M04/M05 A2964 RMK AO1 PRESRR SLP072
SPECI CYNL 141226Z AUTO 31008G18KT 1 1/2SM OVC005 M05/M05 A2964 RMK AO1 PRESRR SLP071
SPECI CYNL 141223Z AUTO 31008G18KT 1 1/4SM OVC005 M05/M05 A2963 RMK AO1 PRESRR SLP071
SPECI CYNL 141222Z AUTO 31009G18KT 1 1/2SM OVC005 M05/M05 A2963 RMK AO1 PRESRR SLP071
SPECI CYNL 141220Z AUTO 31008G18KT 2 1/2SM OVC005 M05/M05 A2963 RMK AO1 PRESRR SLP070
METAR CYNL 141200Z AUTO 31007KT 3SM OVC005 M05/M06 A2962 RMK AO1 PRESRR SLP067
SPECI CYNL 141151Z AUTO 30010KT 3SM OVC005 M05/M06 A2962 RMK AO1 PRESRR SLP067
SPECI CYNL 141147Z AUTO 30010KT 2 1/2SM OVC005 M05/M06 A2962 RMK AO1 PRESRR SLP066
SPECI CYNL 141122Z AUTO 30008G15KT 3SM OVC005 M05/M06 A2961 RMK AO1 PRESRR SLP062
SPECI CYNL 141118Z AUTO 30009G15KT 2 1/2SM OVC005 M05/M06 A2960 RMK AO1 PRESRR SLP062
SPECI CYNL 141115Z AUTO 29009G15KT 3SM OVC005 M05/M06 A2960 RMK AO1 PRESRR SLP062
SPECI CYNL 141111Z AUTO 29007KT 2 1/2SM OVC005 M05/M06 A2960 RMK AO1 PRESRR SLP061
SPECI CYNL 141103Z AUTO 30008KT 3SM OVC005 M05/M06 A2960 RMK AO1 PRESRR SLP060
SPECI CYNL 141102Z AUTO 30008KT 2 1/2SM OVC005 M05/M06 A2960 RMK AO1 PRESRR SLP060
METAR CYNL 141100Z AUTO 30008KT 4SM OVC005 M05/M06 A2960 RMK AO1 PRESRR SLP059
METAR CYNL 141000Z AUTO 30009KT 9SM OVC006 M05/M06 A2956 RMK AO1 PRESRR SLP049
METAR CYNL 140900Z AUTO 29005KT 9SM OVC006 M05/M06 A2953 RMK AO1 PRESRR SLP037
METAR CYNL 140800Z AUTO 30006KT 9SM OVC006 M05/M06 A2949 RMK AO1 PRESRR SLP024
METAR CYNL 140700Z AUTO 30009KT 9SM OVC005 M05/M06 A2947 RMK AO1 PRESRR SLP015
SPECI CYNL 140643Z AUTO 30008KT 9SM BKN005 OVC007 M06/M07 A2946 RMK AO1 PRESRR SLP013
SPECI CYNL 140642Z AUTO 29007KT 9SM BKN004 OVC007 M06/M07 A2946 RMK AO1 PRESRR SLP013
SPECI CYNL 140603Z AUTO 30007KT 9SM BKN009 OVC012 M05/M07 A2944 RMK AO1 PRESRR SLP008
METAR CYNL 140600Z AUTO 30009KT 9SM BKN010 OVC012 M05/M07 A2944 RMK AO1 PRESRR SLP007
METAR CYNL 140500Z AUTO 31008KT 9SM BKN013 M05/M07 A2942 RMK AO1 PRESRR SLP999
SPECI CYNL 140458Z AUTO 31007KT 9SM BKN013 M05/M07 A2942 RMK AO1 PRESRR SLP000
METAR CYNL 140400Z AUTO 29007G15KT 9SM CLR M04/M06 A2939 RMK AO1 SLP990
METAR CYNL 140300Z AUTO 30008KT 9SM CLR M04/M05 A2937 RMK AO1 SLP982
METAR CYNL 140200Z AUTO 29005KT 9SM FEW090 M04/M05 A2937 RMK AO1 SLP979
METAR CYNL 140100Z AUTO 29007KT 9SM CLR M04/M05 A2935 RMK AO1 SLP973
METAR CYNL 140000Z AUTO 26003KT 9SM CLR M04/M06 A2934 RMK AO1 SLP970
METAR CYNL 132300Z AUTO 25006KT 9SM CLR M05/M06 A2933 RMK AO1 PRESRR SLP969
METAR CYNL 132200Z AUTO 18003KT 9SM CLR M05/M06 A2928 RMK AO1 PRESRR SLP954
METAR CYNL 132100Z AUTO 17002KT 9SM CLR M04/M06 A2925 RMK AO1 SLP942
METAR CYNL 132000Z AUTO 24002KT 9SM CLR M04/M06 A2924 RMK AO1 SLP941
METAR CYNL 131900Z AUTO 25005KT 9SM CLR M05/M07 A2926 RMK AO1 SLP947
METAR CYNL 131800Z AUTO 22006KT 9SM CLR M05/M07 A2926 RMK AO1 SLP948
METAR CYNL 131700Z AUTO 18005KT 9SM CLR M06/M07 A2926 RMK AO1 SLP946
METAR CYNL 131600Z AUTO 17006KT 9SM BKN150 M05/M07 A2927 RMK AO1 SLP947
METAR CYNL 131500Z AUTO 18006KT 9SM CLR M05/M06 A2928 RMK AO1 SLP949
METAR CYNL 131400Z AUTO 18008KT 9SM BKN068 M04/M06 A2929 RMK AO1 PRESFR SLP951
METAR CYNL 131300Z AUTO 18005KT 9SM BKN080 M05/M07 A2932 RMK AO1 SLP961
METAR CYNL 131200Z AUTO 16004KT 9SM SCT110 M07/M08 A2934 RMK AO1 PRESFR SLP968
METAR CYNL 131100Z AUTO 20005KT 9SM BKN096 M07/M08 A2937 RMK AO1 SLP977
METAR CYNL 131000Z AUTO 15005KT 9SM CLR M07/M08 A2938 RMK AO1 PRESFR SLP981
METAR CYNL 130900Z AUTO 00000KT 9SM CLR M08/M09 A2942 RMK AO1 SLP998
METAR CYNL 130800Z AUTO 25004KT 9SM CLR M07/M08 A2944 RMK AO1 SLP005
METAR CYNL 130700Z AUTO 25003KT 9SM CLR M07/M08 A2944 RMK AO1 SLP001
METAR CYNL 130600Z AUTO 23003KT 9SM CLR M06/M07 A2944 RMK AO1 SLP003
METAR CYNL 130500Z AUTO 23003KT 9SM CLR M05/M06 A2944 RMK AO1 SLP001
METAR CYNL 130400Z AUTO 26004KT 9SM CLR M03/M04 A2945 RMK AO1 SLP003
METAR CYNL 130300Z AUTO 26007KT 9SM CLR M02/M03 A2945 RMK AO1 SLP004
SPECI CYNL 130225Z AUTO 26006KT 9SM SCT006 M02/M02 A2945 RMK AO1 SLP003
METAR CYNL 130200Z AUTO 26007KT 9SM BKN005 OVC007 M01/M01 A2946 RMK AO1 SLP002
SPECI CYNL 130133Z AUTO 27004KT 9SM BKN007 OVC012 M00/M01 A2945 RMK AO1 SLP000
SPECI CYNL 130102Z AUTO 28004KT 9SM FEW009 OVC013 M00/M01 A2945 RMK AO1 SLP000
METAR CYNL 130100Z AUTO 28004KT 9SM SCT010 OVC013 M00/M01 A2945 RMK AO1 SLP000
SPECI CYNL 130044Z AUTO 26004KT 9SM FEW009 OVC014 M00/M01 A2945 RMK AO1 SLP002
SPECI CYNL 130024Z AUTO 28006KT 9SM BKN013 00/M01 A2945 RMK AO1 SLP003
SPECI CYNL 130023Z AUTO 28006KT 9SM SCT012 BKN015 00/M01 A2945 RMK AO1 SLP002
METAR CYNL 130000Z AUTO 27006KT 9SM OVC012 00/M01 A2945 RMK AO1 SLP002
SPECI CYNL 122332Z AUTO 29008KT 9SM BKN010 OVC015 00/M00 A2944 RMK AO1 SLP999
SPECI CYNL 122322Z AUTO 28007KT 9SM BKN009 BKN012 OVC015 00/M00 A2944 RMK AO1 SLP999
SPECI CYNL 122310Z AUTO 28006KT 9SM FEW007 BKN010 OVC015 00/M00 A2943 RMK AO1 SLP996
SPECI CYNL 122309Z AUTO 29005KT 9SM BKN010 OVC014 00/M00 A2943 RMK AO1 SLP996
SPECI CYNL 122306Z AUTO 29007KT 3SM FEW007 BKN009 BKN012 00/M00 A2943 RMK AO1 SLP997
SPECI CYNL 122305Z AUTO 29008KT 2SM FEW007 BKN009 BKN012 00/M00 A2943 RMK AO1 SLP997
SPECI CYNL 122304Z AUTO 28008KT 1 3/4SM FEW007 BKN009 OVC012 00/M00 A2943 RMK AO1 SLP997
SPECI CYNL 122303Z AUTO 28008KT 1 3/4SM VV010 00/M00 A2943 RMK AO1 SLP997
METAR CYNL 122300Z AUTO 28008KT 2SM VV010 00/M00 A2943 RMK AO1 SLP997
SPECI CYNL 122255Z AUTO 28007KT 2SM VV010 00/M00 A2943 RMK AO1 PRESRR SLP998
SPECI CYNL 122253Z AUTO 28008KT 1 3/4SM VV010 00/M00 A2943 RMK AO1 PRESRR SLP998
SPECI CYNL 122252Z AUTO 29008KT 1 3/4SM VV009 00/M00 A2943 RMK AO1 PRESRR SLP998
SPECI CYNL 122251Z AUTO 28008KT 2SM VV010 00/M00 A2943 RMK AO1 PRESRR SLP997
SPECI CYNL 122242Z AUTO 28009G15KT 1 3/4SM VV012 00/M00 A2943 RMK AO1 PRESRR SLP997
SPECI CYNL 122238Z AUTO 28009KT 2SM VV011 00/M00 A2943 RMK AO1 PRESRR SLP997
SPECI CYNL 122234Z AUTO 28009KT 1 3/4SM VV010 00/M00 A2942 RMK AO1 PRESRR SLP995
SPECI CYNL 122231Z AUTO 28008KT 2 1/2SM VV008 00/M00 A2942 RMK AO1 PRESRR SLP995
SPECI CYNL 122229Z AUTO 28008G17KT 3SM VV008 00/M00 A2942 RMK AO1 PRESRR SLP995
SPECI CYNL 122221Z AUTO 29010G17KT 2 1/2SM VV008 00/M00 A2942 RMK AO1 PRESRR SLP995
SPECI CYNL 122219Z AUTO 28008KT 4SM VV009 00/M00 A2942 RMK AO1 PRESRR SLP995
SPECI CYNL 122218Z AUTO 28008KT 3SM VV010 00/M00 A2942 RMK AO1 PRESRR SLP994
SPECI CYNL 122212Z AUTO 28007KT 2SM VV010 00/M00 A2942 RMK AO1 PRESRR SLP994
SPECI CYNL 122210Z AUTO 28008KT 1 3/4SM VV010 00/M00 A2942 RMK AO1 PRESRR SLP994
SPECI CYNL 122209Z AUTO 27007KT 2SM VV010 00/M00 A2942 RMK AO1 PRESRR SLP994
SPECI CYNL 122206Z AUTO 28008KT 2SM VV009 00/M00 A2942 RMK AO1 PRESRR SLP993
METAR CYNL 122200Z AUTO 27006KT 1 1/2SM VV009 00/M00 A2942 RMK AO1 PRESRR SLP993
SPECI CYNL 122159Z AUTO 27006KT 1 1/2SM VV009 00/M00 A2942 RMK AO1 PRESRR SLP994
SPECI CYNL 122158Z AUTO 27006KT 1 1/2SM VV010 00/M00 A2942 RMK AO1 PRESRR SLP995
SPECI CYNL 122148Z AUTO 27007KT 1 1/4SM VV010 00/M00 A2941 RMK AO1 SLP995
SPECI CYNL 122147Z AUTO 27008KT 1 1/2SM VV010 00/M00 A2941 RMK AO1 SLP994
SPECI CYNL 122146Z AUTO 27008KT 1 1/2SM VV009 00/M00 A2941 RMK AO1 SLP994
SPECI CYNL 122145Z AUTO 28008KT 1 1/2SM VV010 00/M00 A2941 RMK AO1 SLP994
SPECI CYNL 122143Z AUTO 28007KT 1 1/4SM VV010 00/M00 A2941 RMK AO1 SLP993
SPECI CYNL 122139Z AUTO 28009KT 1 3/4SM VV011 00/M01 A2941 RMK AO1 SLP993
SPECI CYNL 122134Z AUTO 29006KT 2SM FEW008 BKN011 BKN013 00/M01 A2941 RMK AO1 SLP992
SPECI CYNL 122129Z AUTO 28008KT 9SM FEW007 BKN011 OVC017 00/M01 A2940 RMK AO1 SLP991
SPECI CYNL 122126Z AUTO 28008KT 3SM VV012 00/M01 A2940 RMK AO1 SLP990
SPECI CYNL 122122Z AUTO 28008KT 2 1/2SM VV012 00/M01 A2940 RMK AO1 SLP989
SPECI CYNL 122117Z AUTO 28007KT 3SM VV014 00/M01 A2939 RMK AO1 SLP988
SPECI CYNL 122116Z AUTO 28007KT 3SM VV015 00/M01 A2939 RMK AO1 SLP987
SPECI CYNL 122106Z AUTO 29008KT 6SM SCT007 BKN011 00/M01 A2939 RMK AO1 SLP987
SPECI CYNL 122105Z AUTO 29009KT 3SM VV009 M00/M01 A2939 RMK AO1 SLP987
SPECI CYNL 122103Z AUTO 29005KT 2SM VV009 M00/M01 A2939 RMK AO1 SLP986
METAR CYNL 122100Z AUTO 28007KT 1 1/2SM VV011 M00/M01 A2939 RMK AO1 SLP987
SPECI CYNL 122052Z AUTO 29006KT 1 3/4SM SCT008 BKN012 OVC018 M00/M01 A2939 RMK AO1 SLP988
SPECI CYNL 122051Z AUTO 29006KT 2 1/2SM SCT008 BKN012 OVC019 00/M01 A2939 RMK AO1 SLP988
SPECI CYNL 122025Z AUTO 30008KT 3SM SCT008 BKN010 BKN013 M00/M01 A2939 RMK AO1 SLP987
SPECI CYNL 122024Z AUTO 29008G15KT 2SM SCT008 BKN010 BKN013 M00/M01 A2939 RMK AO1 SLP987
SPECI CYNL 122021Z AUTO 30009G15KT 1 3/4SM VV012 M00/M01 A2939 RMK AO1 SLP987
SPECI CYNL 122019Z AUTO 29007G15KT 2SM VV012 M00/M01 A2939 RMK AO1 SLP987
SPECI CYNL 122018Z AUTO 29008G15KT 1 3/4SM SCT008 BKN010 OVC014 M00/M01 A2939 RMK AO1 SLP987
SPECI CYNL 122015Z AUTO 29011G17KT 1 3/4SM BKN008 OVC012 M00/M01 A2939 RMK AO1 SLP987
SPECI CYNL 122014Z AUTO 30010G17KT 2 1/2SM BKN008 BKN010 OVC013 M00/M01 A2939 RMK AO1 SLP987
METAR CYNL 122000Z AUTO 29011G17KT 3SM BKN009 BKN011 OVC014 M00/M01 A2938 RMK AO1 SLP986
SPECI CYNL 121959Z AUTO 30010G17KT 3SM BKN008 BKN011 OVC014 M00/M01 A2938 RMK AO1 SLP988
SPECI CYNL 121958Z AUTO 29009G16KT 2 1/2SM BKN008 OVC012 00/M01 A2938 RMK AO1 SLP991
METAR CYNL 121900Z AUTO 28009G18KT 9SM OVC008 M00/M01 A2937 RMK AO1 SLP988
SPECI CYNL 121824Z AUTO 27009KT 9SM OVC009 M00/M01 A2936 RMK AO1 SLP984
METAR CYNL 121800Z AUTO 26008KT 9SM BKN010 OVC012 M00/M01 A2936 RMK AO1 SLP984
SPECI CYNL 121732Z AUTO 26008KT 9SM OVC014 M00/M02 A2936 RMK AO1 SLP981
SPECI CYNL 121705Z AUTO 25008KT 9SM BKN018 M01/M02 A2936 RMK AO1 SLP981
METAR CYNL 121700Z AUTO 26009KT 9SM SCT018 M01/M02 A2935 RMK AO1 SLP981
METAR CYNL 121600Z AUTO 26006KT 9SM BKN076 M01/M02 A2935 RMK AO1 SLP981
METAR CYNL 121500Z AUTO 25006KT 9SM SCT010 M01/M02 A2933 RMK AO1 SLP975
SPECI CYNL 121457Z AUTO 25007KT 9SM SCT010 M01/M02 A2933 RMK AO1 SLP973
SPECI CYNL 121441Z AUTO 25006KT 9SM SCT009 BKN020 M01/M02 A2934 RMK AO1 SLP974
SPECI CYNL 121438Z AUTO 25007KT 9SM SCT009 BKN014 BKN023 M01/M02 A2934 RMK AO1 SLP974
SPECI CYNL 121434Z AUTO 25006KT 9SM SCT009 BKN022 M01/M02 A2933 RMK AO1 SLP973
SPECI CYNL 121431Z AUTO 25006KT 9SM FEW010 BKN022 M01/M02 A2933 RMK AO1 SLP973
METAR CYNL 121400Z AUTO 24005KT 9SM FEW007 M01/M02 A2933 RMK AO1 SLP971
SPECI CYNL 121341Z AUTO 25006KT 4SM FEW007 SCT010 M01/M02 A2933 RMK AO1 SLP972
SPECI CYNL 121339Z AUTO 26006KT 5SM FEW007 BKN010 M01/M02 A2933 RMK AO1 SLP972
SPECI CYNL 121335Z AUTO 25005KT 4SM VV009 M02/M02 A2934 RMK AO1 SLP973
SPECI CYNL 121334Z AUTO 25004KT 3SM VV010 M02/M02 A2934 RMK AO1 SLP973
METAR CYNL 121300Z AUTO 23004KT 5SM FEW007 SCT012 M03/M03 A2934 RMK AO1 SLP976
SPECI CYNL 121250Z AUTO 24004KT 4SM FEW006 SCT015 M03/M03 A2934 RMK AO1 SLP975
SPECI CYNL 121236Z AUTO 25004KT 4SM FEW006 BKN015 OVC018 M03/M04 A2934 RMK AO1 SLP976
SPECI CYNL 121227Z AUTO 24004KT 4SM OVC015 M03/M04 A2934 RMK AO1 SLP976
SPECI CYNL 121212Z AUTO 25004KT 3SM FEW009 BKN014 OVC017 M03/M04 A2934 RMK AO1 SLP977
SPECI CYNL 121208Z AUTO 25005KT 2 1/2SM FEW009 BKN014 OVC017 M03/M04 A2934 RMK AO1 SLP977
SPECI CYNL 121207Z AUTO 25004KT 2 1/2SM FEW009 OVC015 M04/M04 A2934 RMK AO1 SLP977
SPECI CYNL 121206Z AUTO 25004KT 2 1/2SM FEW009 BKN014 OVC017 M04/M04 A2934 RMK AO1 SLP977
SPECI CYNL 121203Z AUTO 24004KT 4SM FEW010 BKN014 OVC017 M04/M04 A2934 RMK AO1 SLP977
SPECI CYNL 121201Z AUTO 24004KT 3SM VV016 M04/M04 A2934 RMK AO1 SLP977
METAR CYNL 121200Z AUTO 24004KT 2 1/2SM VV016 M04/M04 A2934 RMK AO1 SLP977
SPECI CYNL 121158Z AUTO 24004KT 2 1/2SM VV015 M04/M04 A2934 RMK AO1 SLP976
SPECI CYNL 121157Z AUTO 24004KT 2SM VV014 M04/M04 A2934 RMK AO1 SLP976
SPECI CYNL 121154Z AUTO 24004KT 1 1/2SM VV012 M04/M05 A2934 RMK AO1 SLP976
SPECI CYNL 121145Z AUTO 24006KT 1SM VV014 M04/M05 A2934 RMK AO1 SLP976
SPECI CYNL 121141Z AUTO 24006KT 1 1/4SM VV015 M04/M05 A2934 RMK AO1 SLP976
SPECI CYNL 121137Z AUTO 24005KT 1 1/2SM VV015 M04/M05 A2934 RMK AO1 SLP977
SPECI CYNL 121136Z AUTO 24005KT 1 1/2SM VV014 M04/M05 A2934 RMK AO1 SLP977
SPECI CYNL 121135Z AUTO 24005KT 1 1/4SM VV013 M04/M05 A2934 RMK AO1 SLP977
SPECI CYNL 121133Z AUTO 25006KT 1 1/2SM VV012 M04/M05 A2934 RMK AO1 SLP977
SPECI CYNL 121128Z AUTO 25006KT 1SM VV010 M04/M05 A2934 RMK AO1 SLP978
SPECI CYNL 121127Z AUTO 25006KT 1SM VV009 M04/M06 A2934 RMK AO1 SLP978
SPECI CYNL 121126Z AUTO 25006KT 1 1/4SM VV010 M05/M06 A2934 RMK AO1 SLP978
SPECI CYNL 121124Z AUTO 25007KT 1 1/4SM FEW007 M05/M06 A2935 RMK AO1 SLP978
SPECI CYNL 121123Z AUTO 25007KT 1 1/2SM FEW007 M05/M06 A2935 RMK AO1 SLP978
SPECI CYNL 121121Z AUTO 24007KT 2 1/2SM FEW007 M05/M06 A2934 RMK AO1 SLP978
METAR CYNL 121100Z AUTO 25005KT 8SM FEW012 M05/M07 A2934 RMK AO1 SLP977
METAR CYNL 121000Z AUTO 25003KT 9SM SCT068 M08/M09 A2935 RMK AO1 PRESFR SLP981
METAR CYNL 120900Z AUTO 23005KT 9SM BKN098 M09/M11 A2938 RMK AO1 SLP992
METAR CYNL 120800Z AUTO 22004KT 9SM SCT120 M13/M15 A2940 RMK AO1 SLP003
METAR CYNL 120700Z AUTO 21003KT 9SM CLR M14/M16 A2941 RMK AO1 PRESFR SLP005
METAR CYNL 120600Z AUTO 22002KT 9SM CLR M13/M15 A2943 RMK AO1 SLP012
METAR CYNL 120500Z AUTO 00000KT 9SM CLR M14/M16 A2945 RMK AO1 PRESFR SLP020
METAR CYNL 120400Z AUTO 23003KT 9SM CLR M13/M15 A2948 RMK AO1 PRESFR SLP033
METAR CYNL 120300Z AUTO 21003KT 9SM SCT100 M12/M14 A2950 RMK AO1 PRESFR SLP041
METAR CYNL 120200Z AUTO 24003KT 9SM SCT110 M11/M13 A2952 RMK AO1 SLP046
METAR CYNL 120100Z AUTO 00000KT 9SM FEW170 M11/M12 A2952 RMK AO1 PRESFR SLP045
METAR CYNL 120000Z AUTO 20002KT 9SM FEW170 M09/M11 A2955 RMK AO1 SLP051
METAR CYNL 112300Z AUTO 21003KT 9SM CLR M07/M08 A2956 RMK AO1 SLP050
METAR CYNL 112200Z AUTO 18003KT 9SM CLR M07/M09 A2957 RMK AO1 SLP053
METAR CYNL 112100Z AUTO 22002KT 9SM CLR M06/M08 A2957 RMK AO1 SLP054
METAR CYNL 112000Z AUTO 22003KT 9SM CLR M05/M07 A2957 RMK AO1 SLP055
METAR CYNL 111900Z AUTO 26004KT 9SM CLR M05/M07 A2959 RMK AO1 SLP064
METAR CYNL 111800Z AUTO 27004KT 9SM CLR M06/M08 A2960 RMK AO1 SLP065
METAR CYNL 111700Z AUTO 25004KT 9SM CLR M09/M10 A2961 RMK AO1 SLP070
METAR CYNL 111600Z AUTO 28003KT 8SM SCT008 M09/M11 A2960 RMK AO1 SLP069
SPECI CYNL 111538Z AUTO 28003KT 9SM FEW006 M10/M12 A2960 RMK AO1 SLP071
SPECI CYNL 111513Z AUTO 25003KT 9SM SCT010 M09/M10 A2960 RMK AO1 SLP070
METAR CYNL 111500Z AUTO 22003KT 9SM BKN010 M09/M11 A2960 RMK AO1 SLP070
SPECI CYNL 111447Z AUTO 22003KT 9SM SCT010 BKN013 M09/M10 A2960 RMK AO1 SLP071
SPECI CYNL 111445Z AUTO 22002KT 9SM SCT011 BKN024 M09/M10 A2960 RMK AO1 SLP071
SPECI CYNL 111442Z AUTO 00000KT 9SM SCT011 M09/M10 A2960 RMK AO1 SLP070
SPECI CYNL 111439Z AUTO 24002KT 9SM SCT011 BKN024 M08/M10 A2960 RMK AO1 SLP070
SPECI CYNL 111433Z AUTO 25004KT 9SM BKN011 M08/M10 A2960 RMK AO1 SLP069
SPECI CYNL 111427Z AUTO 24003KT 9SM SCT012 BKN024 M08/M10 A2960 RMK AO1 SLP069
METAR CYNL 111400Z AUTO 26003KT 9SM CLR M08/M10 A2960 RMK AO1 SLP069
SPECI CYNL 111321Z AUTO 26005KT 9SM SCT026 M07/M08 A2960 RMK AO1 SLP070
METAR CYNL 111300Z AUTO 26005KT 9SM OVC026 M06/M08 A2960 RMK AO1 SLP068
SPECI CYNL 111230Z AUTO 25004KT 9SM SCT011 OVC026 M06/M07 A2960 RMK AO1 SLP070
METAR CYNL 111200Z AUTO 26006KT 9SM OVC011 M05/M06 A2961 RMK AO1 SLP070
SPECI CYNL 111140Z AUTO 25006KT 9SM SCT008 OVC010 M05/M06 A2961 RMK AO1 SLP070
METAR CYNL 111100Z AUTO 24005KT 9SM BKN008 BKN013 OVC016 M06/M07 A2960 RMK AO1 SLP067
SPECI CYNL 111057Z AUTO 24004KT 9SM SCT008 BKN010 OVC014 M06/M07 A2960 RMK AO1 SLP066
SPECI CYNL 111056Z AUTO 24004KT 9SM BKN009 OVC014 M06/M07 A2960 RMK AO1 SLP066
SPECI CYNL 111055Z AUTO 25004KT 9SM SCT009 OVC014 M06/M07 A2960 RMK AO1 SLP066
SPECI CYNL 111054Z AUTO 24004KT 9SM BKN009 OVC014 M06/M07 A2960 RMK AO1 SLP066
SPECI CYNL 111051Z AUTO 25005KT 9SM SCT009 OVC014 M06/M07 A2960 RMK AO1 SLP066
SPECI CYNL 111038Z AUTO 24004KT 9SM BKN014 OVC026 M06/M07 A2960 RMK AO1 SLP066
SPECI CYNL 111032Z AUTO 24003KT 9SM SCT012 BKN015 OVC026 M06/M08 A2960 RMK AO1 SLP067
SPECI CYNL 111021Z AUTO 25003KT 7SM BKN011 OVC058 M06/M08 A2960 RMK AO1 SLP067
SPECI CYNL 111018Z AUTO 25004KT 6SM SCT011 BKN026 OVC058 M07/M08 A2960 RMK AO1 SLP066
METAR CYNL 111000Z AUTO 25005KT 9SM FEW040 OVC060 M07/M08 A2960 RMK AO1 SLP068
SPECI CYNL 110929Z AUTO 24006KT 6SM FEW009 SCT012 BKN040 M07/M08 A2961 RMK AO1 SLP069
SPECI CYNL 110928Z AUTO 24006KT 4SM VV010 M07/M08 A2961 RMK AO1 SLP069
SPECI CYNL 110926Z AUTO 24005KT 2SM VV010 M07/M08 A2961 RMK AO1 SLP069
SPECI CYNL 110925Z AUTO 24005KT 1 1/2SM VV010 M07/M08 A2961 RMK AO1 SLP069
SPECI CYNL 110924Z AUTO 24005KT 1 1/4SM VV010 M07/M09 A2961 RMK AO1 SLP069
SPECI CYNL 110923Z AUTO 24005KT 1SM VV009 M07/M09 A2961 RMK AO1 SLP069
SPECI CYNL 110922Z AUTO 24005KT 3/4SM VV009 M07/M09 A2961 RMK AO1 SLP069
SPECI CYNL 110921Z AUTO 24005KT 1SM VV009 M07/M09 A2961 RMK AO1 SLP070
SPECI CYNL 110918Z AUTO 25006KT 1SM VV013 M07/M09 A2961 RMK AO1 SLP071
SPECI CYNL 110917Z AUTO 25006KT 1 1/4SM FEW011 M07/M09 A2961 RMK AO1 SLP071
SPECI CYNL 110916Z AUTO 25006KT 1 1/2SM FEW011 M07/M09 A2961 RMK AO1 SLP071
SPECI CYNL 110915Z AUTO 25007KT 2SM FEW011 M07/M09 A2961 RMK AO1 SLP071
METAR CYNL 110900Z AUTO 23006KT 9SM FEW060 M07/M09 A2961 RMK AO1 SLP070
METAR CYNL 110800Z AUTO 23004KT 9SM FEW062 M10/M11 A2962 RMK AO1 SLP077
METAR CYNL 110700Z AUTO 21002KT 9SM CLR M08/M10 A2963 RMK AO1 PRESFR SLP078
METAR CYNL 110600Z AUTO 23002KT 9SM CLR M07/M08 A2966 RMK AO1 SLP085
METAR CYNL 110500Z AUTO 24004KT 9SM FEW078 M07/M09 A2968 RMK AO1 PRESFR SLP093
METAR CYNL 110400Z AUTO 24004KT 9SM CLR M08/M10 A2970 RMK AO1 SLP103
METAR CYNL 110300Z AUTO 23004KT 9SM CLR M09/M11 A2971 RMK AO1 SLP109
METAR CYNL 110200Z AUTO 24004KT 9SM CLR M10/M12 A2972 RMK AO1 SLP115
METAR CYNL 110100Z AUTO 24004KT 9SM CLR M10/M12 A2972 RMK AO1 SLP116
METAR CYNL 110000Z AUTO 24004KT 9SM CLR M09/M11 A2973 RMK AO1 PRESFR SLP114
METAR CYNL 102300Z AUTO 24005KT 9SM CLR M09/M10 A2975 RMK AO1 SLP121
METAR CYNL 102200Z AUTO 27003KT 9SM CLR M07/M09 A2974 RMK AO1 SLP117
METAR CYNL 102100Z AUTO 28006KT 9SM CLR M07/M09 A2975 RMK AO1 SLP119
METAR CYNL 102000Z AUTO 28004KT 9SM CLR M06/M08 A2975 RMK AO1 SLP117
METAR CYNL 101900Z AUTO 28007KT 9SM CLR M06/M08 A2976 RMK AO1 SLP121
METAR CYNL 101800Z AUTO 27008KT 9SM CLR M07/M09 A2976 RMK AO1 SLP123
METAR CYNL 101700Z AUTO 27007KT 9SM CLR M08/M10 A2976 RMK AO1 SLP126
METAR CYNL 101600Z AUTO 27005KT 9SM CLR M09/M11 A2977 RMK AO1 SLP127
METAR CYNL 101500Z AUTO 27005KT 9SM CLR M10/M12 A2975 RMK AO1 SLP122
METAR CYNL 101400Z AUTO 27004KT 9SM CLR M10/M12 A2975 RMK AO1 SLP126
METAR CYNL 101300Z AUTO 28006KT 9SM CLR M09/M11 A2976 RMK AO1 SLP132
METAR CYNL 101200Z AUTO 27007KT 9SM CLR M09/M11 A2977 RMK AO1 SLP133
METAR CYNL 101100Z AUTO 27008KT 9SM CLR M09/M10 A2977 RMK AO1 SLP133
METAR CYNL 101000Z AUTO 28006KT 9SM CLR M09/M11 A2978 RMK AO1 SLP134
METAR CYNL 100900Z AUTO 27005KT 9SM CLR M09/M11 A2978 RMK AO1 SLP133
METAR CYNL 100800Z AUTO 26007KT 9SM CLR M09/M10 A2979 RMK AO1 SLP133
METAR CYNL 100700Z AUTO 26008KT 9SM FEW150 M08/M10 A2979 RMK AO1 SLP133
METAR CYNL 100600Z AUTO 26008KT 9SM CLR M08/M10 A2979 RMK AO1 SLP136
METAR CYNL 100500Z AUTO 25008KT 9SM FEW170 M08/M09 A2980 RMK AO1 PRESFR SLP142
METAR CYNL 100400Z AUTO 25005KT 9SM CLR M08/M09 A2983 RMK AO1 SLP157
METAR CYNL 100300Z AUTO 25006KT 9SM CLR M10/M12 A2984 RMK AO1 SLP167
METAR CYNL 100200Z AUTO 24006KT 9SM CLR M12/M14 A2986 RMK AO1 SLP173
METAR CYNL 100100Z AUTO 25005KT 9SM CLR M12/M14 A2987 RMK AO1 PRESFR SLP180
METAR CYNL 100000Z AUTO 24005KT 9SM CLR M11/M13 A2990 RMK AO1 SLP186
METAR CYNL 092300Z AUTO 23006KT 9SM CLR M10/M11 A2991 RMK AO1 SLP190
METAR CYNL 092200Z AUTO 23006KT 9SM CLR M08/M10 A2993 RMK AO1 SLP193
SPECI CYNL 092140Z AUTO 22005KT 9SM SCT005 M08/M09 A2993 RMK AO1 PRESFR SLP194
SPECI CYNL 092128Z AUTO 22005KT 9SM OVC005 M08/M09 A2993 RMK AO1 PRESFR SLP195
SPECI CYNL 092111Z AUTO 22006KT 9SM BKN004 M08/M10 A2994 RMK AO1 PRESFR SLP197
SPECI CYNL 092108Z AUTO 21005KT 9SM FEW003 BKN005 M08/M10 A2994 RMK AO1 PRESFR SLP198
METAR CYNL 092100Z AUTO 20007KT 9SM FEW003 M08/M10 A2994 RMK AO1 PRESFR SLP197
SPECI CYNL 092035Z AUTO 19003KT 9SM SCT005 M08/M09 A2994 RMK AO1 PRESFR SLP199
SPECI CYNL 092028Z AUTO 19003KT 9SM BKN005 M08/M10 A2995 RMK AO1 PRESFR SLP201
SPECI CYNL 092016Z AUTO 19005KT 9SM FEW005 M08/M09 A2996 RMK AO1 PRESFR SLP204
METAR CYNL 092000Z AUTO 20004KT 9SM CLR M07/M09 A2997 RMK AO1 PRESFR SLP208
METAR CYNL 091900Z AUTO 20003KT 9SM CLR M09/M11 A3000 RMK AO1 PRESFR SLP218
METAR CYNL 091800Z AUTO 24002KT 9SM CLR M11/M13 A3004 RMK AO1 PRESFR SLP236
METAR CYNL 091700Z AUTO 20003KT 9SM CLR M17/M20 A3006 RMK AO1 PRESFR SLP249
METAR CYNL 091600Z AUTO 24003KT 9SM CLR M19/M22 A3008 RMK AO1 PRESFR SLP263
METAR CYNL 091500Z AUTO 23005KT 9SM CLR M17/M20 A3011 RMK AO1 SLP264
METAR CYNL 091400Z AUTO 25004KT 9SM CLR M18/M21 A3012 RMK AO1 PRESFR SLP270
METAR CYNL 091300Z AUTO 24004KT 9SM CLR M18/M21 A3015 RMK AO1 SLP278
METAR CYNL 091200Z AUTO 25003KT 9SM CLR M17/M20 A3016 RMK AO1 SLP279
METAR CYNL 091100Z AUTO 24004KT 9SM CLR M17/M20 A3018 RMK AO1 SLP283
METAR CYNL 091000Z AUTO 24006KT 9SM CLR M18/M21 A3018 RMK AO1 SLP284
METAR CYNL 090900Z AUTO 22002KT 9SM CLR M20/M23 A3019 RMK AO1 SLP285
METAR CYNL 090800Z AUTO 23004KT 9SM CLR M18/M20 A3019 RMK AO1 SLP281
METAR CYNL 090700Z AUTO 25003KT 9SM CLR M19/M22 A3020 RMK AO1 SLP284
METAR CYNL 090600Z AUTO 23005KT 9SM CLR M17/M20 A3020 RMK AO1 SLP284
SPECI CYNL 090524Z AUTO 25005KT 5SM CLR M18/M20 A3021 RMK AO1 SLP290
SPECI CYNL 090523Z AUTO 25005KT 1 3/4SM CLR M18/M20 A3021 RMK AO1 SLP290
SPECI CYNL 090520Z AUTO 24006KT 1 1/4SM CLR M18/M20 A3021 RMK AO1 SLP290
SPECI CYNL 090519Z AUTO 24005KT 1 3/4SM CLR M18/M20 A3021 RMK AO1 SLP290
METAR CYNL 090500Z AUTO 23003KT 9SM CLR M19/M22 A3020 RMK AO1 SLP289
METAR CYNL 090400Z AUTO 25003KT 9SM CLR M17/M19 A3020 RMK AO1 SLP290
METAR CYNL 090300Z AUTO 25005KT 9SM CLR M15/M17 A3021 RMK AO1 SLP289
METAR CYNL 090200Z AUTO 00000KT 9SM CLR M15/M18 A3020 RMK AO1 SLP288
METAR CYNL 090100Z AUTO 28003KT 9SM CLR M13/M15 A3020 RMK AO1 SLP285
METAR CYNL 090000Z AUTO 26002KT 9SM CLR M12/M14 A3020 RMK AO1 SLP281
METAR CYNL 082300Z AUTO 00000KT 9SM CLR M10/M12 A3020 RMK AO1 SLP276
METAR CYNL 082200Z AUTO 27005KT 9SM CLR M07/M08 A3019 RMK AO1 SLP270
METAR CYNL 082100Z AUTO 26005KT 9SM CLR M05/M07 A3018 RMK AO1 SLP263
METAR CYNL 082000Z AUTO 27006KT 9SM CLR M05/M07 A3016 RMK AO1 SLP256
METAR CYNL 081900Z AUTO 27004KT 9SM CLR M06/M08 A3015 RMK AO1 SLP257
METAR CYNL 081800Z AUTO 26004KT 9SM CLR M08/M10 A3015 RMK AO1 SLP257
METAR CYNL 081700Z AUTO 25005KT 9SM CLR M11/M13 A3015 RMK AO1 SLP259
METAR CYNL 081600Z AUTO 26003KT 9SM CLR M11/M13 A3014 RMK AO1 SLP255
METAR CYNL 081500Z AUTO 25004KT 9SM CLR M11/M13 A3015 RMK AO1 PRESRR SLP258
METAR CYNL 081400Z AUTO 25006KT 9SM CLR M11/M13 A3012 RMK AO1 SLP249
METAR CYNL 081300Z AUTO 25004KT 9SM CLR M10/M12 A3011 RMK AO1 SLP242
METAR CYNL 081200Z AUTO 23004KT 9SM CLR M09/M10 A3011 RMK AO1 SLP241
METAR CYNL 081100Z AUTO 25005KT 9SM CLR M07/M09 A3011 RMK AO1 SLP240
METAR CYNL 081000Z AUTO 26006KT 9SM CLR M07/M08 A3011 RMK AO1 SLP239
METAR CYNL 080900Z AUTO 26008KT 9SM CLR M06/M08 A3010 RMK AO1 SLP234
METAR CYNL 080800Z AUTO 24006KT 9SM CLR M08/M10 A3009 RMK AO1 SLP229
METAR CYNL 080700Z AUTO 24006KT 9SM CLR M08/M09 A3007 RMK AO1 PRESRR SLP223
METAR CYNL 080600Z AUTO 24005KT 9SM CLR M06/M07 A3005 RMK AO1 SLP214
METAR CYNL 080500Z AUTO 26006KT 9SM CLR M06/M07 A3004 RMK AO1 SLP212
METAR CYNL 080400Z AUTO 25008KT 9SM CLR M06/M07 A3003 RMK AO1 SLP212
METAR CYNL 080300Z AUTO 25007KT 9SM CLR M06/M07 A3002 RMK AO1 SLP205
METAR CYNL 080200Z AUTO 25008KT 9SM CLR M05/M06 A3001 RMK AO1 SLP206
METAR CYNL 080100Z AUTO 25008KT 9SM CLR M05/M06 A3000 RMK AO1 SLP201
METAR CYNL 080000Z AUTO 24008KT 9SM CLR M05/M06 A2998 RMK AO1 PRESRR SLP199
METAR CYNL 072300Z AUTO 24006KT 9SM CLR M05/M06 A2996 RMK AO1 PRESRR SLP192
METAR CYNL 072200Z AUTO 24006KT 9SM FEW080 M03/M04 A2994 RMK AO1 SLP183
METAR CYNL 072100Z AUTO 23007KT 9SM CLR M02/M03 A2992 RMK AO1 PRESRR SLP174
METAR CYNL 072000Z AUTO 23006KT 9SM CLR M01/M02 A2990 RMK AO1 SLP165
METAR CYNL 071900Z AUTO 26008KT 9SM CLR M02/M02 A2989 RMK AO1 SLP161
METAR CYNL 071800Z AUTO 25008KT 9SM CLR M03/M04 A2989 RMK AO1 SLP163
METAR CYNL 071700Z AUTO 24006KT 9SM CLR M06/M07 A2987 RMK AO1 PRESRR SLP160
METAR CYNL 071600Z AUTO 25006KT 9SM FEW130 M06/M07 A2983 RMK AO1 PRESRR SLP146
METAR CYNL 071500Z AUTO 24006KT 9SM FEW120 M07/M09 A2981 RMK AO1 SLP141
METAR CYNL 071400Z AUTO 23005KT 9SM CLR M08/M09 A2979 RMK AO1 SLP135
METAR CYNL 071300Z AUTO 24006KT 9SM CLR M10/M12 A2979 RMK AO1 PRESRR SLP136
METAR CYNL 071200Z AUTO 24007KT 9SM CLR M11/M13 A2976 RMK AO1 SLP130
METAR CYNL 071100Z AUTO 24005KT 9SM CLR M11/M13 A2975 RMK AO1 SLP125
METAR CYNL 071000Z AUTO 23005KT 9SM CLR M10/M12 A2973 RMK AO1 PRESRR SLP120
METAR CYNL 070900Z AUTO 22006KT 9SM CLR M09/M11 A2970 RMK AO1 SLP109
METAR CYNL 070800Z AUTO 22006KT 9SM CLR M09/M11 A2970 RMK AO1 SLP107
METAR CYNL 070700Z AUTO 22004KT 9SM CLR M09/M11 A2969 RMK AO1 SLP105
METAR CYNL 070600Z AUTO 21005KT 9SM CLR M09/M11 A2968 RMK AO1 SLP104
SPECI CYNL 070515Z AUTO 21006KT 9SM SCT006 M09/M10 A2968 RMK AO1 SLP102
METAR CYNL 070500Z AUTO 20007KT 9SM OVC006 M08/M10 A2968 RMK AO1 SLP103
METAR CYNL 070400Z AUTO 20010G18KT 9SM OVC006 M08/M10 A2968 RMK AO1 SLP102
METAR CYNL 070300Z AUTO 19010G19KT 9SM OVC006 M09/M10 A2967 RMK AO1 PRESFR SLP102
METAR CYNL 070200Z AUTO 18010G17KT 9SM OVC006 M09/M11 A2969 RMK AO1 SLP110
METAR CYNL 070100Z AUTO 17010KT 9SM OVC006 M10/M11 A2971 RMK AO1 SLP116
SPECI CYNL 070010Z AUTO 17012KT 9SM FEW007 BKN009 M10/M12 A2972 RMK AO1 PRESFR SLP120
SPECI CYNL 070006Z AUTO 17011KT 9SM FEW005 SCT010 BKN014 M10/M12 A2972 RMK AO1 PRESFR SLP119
SPECI CYNL 070005Z AUTO 17012KT 9SM FEW005 SCT010 BKN015 M10/M12 A2972 RMK AO1 PRESFR SLP119
METAR CYNL 070000Z AUTO 17011KT 9SM FEW005 SCT008 M10/M12 A2972 RMK AO1 PRESFR SLP119
SPECI CYNL 062359Z AUTO 17011KT 9SM FEW005 SCT008 M10/M12 A2972 RMK AO1 PRESFR SLP119
SPECI CYNL 062357Z AUTO 17011KT 9SM SCT005 BKN010 M10/M12 A2971 RMK AO1 SLP118
SPECI CYNL 062350Z AUTO 17009KT 6SM VV009 M11/M12 A2971 RMK AO1 SLP116
SPECI CYNL 062348Z AUTO 17009G16KT 3SM VV010 M11/M12 A2971 RMK AO1 SLP116
SPECI CYNL 062330Z AUTO 16010G16KT 3SM VV007 M11/M13 A2971 RMK AO1 SLP117
SPECI CYNL 062328Z AUTO 15011G16KT 2SM BKN006 OVC008 M11/M13 A2971 RMK AO1 SLP117
SPECI CYNL 062323Z AUTO 15010G17KT 1 1/2SM BKN006 OVC008 M11/M13 A2972 RMK AO1 SLP119
SPECI CYNL 062319Z AUTO 16008G17KT 1 1/4SM OVC006 M11/M13 A2972 RMK AO1 SLP120
SPECI CYNL 062318Z AUTO 16010G17KT 1 1/2SM OVC006 M11/M13 A2972 RMK AO1 SLP120
SPECI CYNL 062316Z AUTO 15010G17KT 2 1/2SM OVC006 M11/M13 A2972 RMK AO1 SLP121
METAR CYNL 062300Z AUTO 16010KT 9SM OVC006 M11/M13 A2973 RMK AO1 SLP126
SPECI CYNL 062202Z AUTO 15009KT 9SM OVC005 M11/M13 A2975 RMK AO1 SLP131
METAR CYNL 062200Z AUTO 15007KT 9SM OVC004 M11/M13 A2975 RMK AO1 SLP132
METAR CYNL 062100Z AUTO 15011KT 9SM OVC004 M12/M14 A2977 RMK AO1 SLP140
SPECI CYNL 062052Z AUTO 14011KT 9SM OVC004 M12/M14 A2977 RMK AO1 SLP141
METAR CYNL 062000Z AUTO 15008G16KT 9SM FEW003 OVC005 M12/M14 A2979 RMK AO1 SLP149
METAR CYNL 061900Z AUTO 14009G16KT 6SM OVC005 M13/M15 A2981 RMK AO1 PRESFR SLP158
METAR CYNL 061800Z AUTO 14010KT 9SM OVC006 M13/M16 A2985 RMK AO1 PRESFR SLP173
METAR CYNL 061700Z AUTO 16009KT 8SM OVC006 M14/M16 A2990 RMK AO1 SLP188
METAR CYNL 061600Z AUTO 15009KT 9SM OVC007 M14/M17 A2989 RMK AO1 PRESRR SLP187
METAR CYNL 061500Z AUTO 13009KT 9SM BKN008 M14/M17 A2987 RMK AO1 PRESFR SLP180
METAR CYNL 061400Z AUTO 15009KT 9SM BKN009 OVC010 M14/M16 A2993 RMK AO1 SLP199
METAR CYNL 061300Z AUTO 15009KT 9SM OVC009 M14/M16 A2994 RMK AO1 SLP206
SPECI CYNL 061231Z AUTO 15008KT 9SM OVC009 M14/M16 A2995 RMK AO1 SLP208
SPECI CYNL 061218Z AUTO 15008KT 9SM BKN010 OVC032 M14/M17 A2995 RMK AO1 SLP208
SPECI CYNL 061216Z AUTO 15008KT 9SM BKN009 OVC032 M14/M17 A2995 RMK AO1 SLP208
SPECI CYNL 061215Z AUTO 15010KT 9SM FEW008 BKN010 OVC032 M14/M17 A2995 RMK AO1 SLP207
SPECI CYNL 061212Z AUTO 15009KT 9SM BKN009 OVC032 M14/M17 A2995 RMK AO1 SLP208
SPECI CYNL 061211Z AUTO 15008KT 9SM FEW008 BKN010 OVC032 M14/M17 A2995 RMK AO1 SLP207
METAR CYNL 061200Z AUTO 14007KT 9SM BKN009 OVC032 M14/M17 A2995 RMK AO1 SLP207
SPECI CYNL 061151Z AUTO 13007KT 9SM OVC009 M15/M17 A2995 RMK AO1 SLP207
SPECI CYNL 061147Z AUTO 14009KT 9SM FEW008 OVC010 M14/M17 A2995 RMK AO1 SLP208
SPECI CYNL 061126Z AUTO 14009KT 9SM OVC010 M14/M17 A2995 RMK AO1 SLP209
METAR CYNL 061100Z AUTO 14008KT 9SM BKN009 OVC042 M14/M17 A2996 RMK AO1 SLP211
SPECI CYNL 061025Z AUTO 14007KT 9SM OVC009 M15/M17 A2996 RMK AO1 SLP214
METAR CYNL 061000Z AUTO 13006KT 9SM BKN010 OVC046 M15/M17 A2997 RMK AO1 SLP215
SPECI CYNL 060957Z AUTO 14008KT 9SM BKN010 OVC046 M15/M17 A2997 RMK AO1 SLP216
SPECI CYNL 060950Z AUTO 15005KT 9SM SCT010 OVC047 M15/M17 A2997 RMK AO1 SLP217
SPECI CYNL 060926Z AUTO 14006KT 9SM BKN010 OVC049 M15/M18 A2998 RMK AO1 SLP219
METAR CYNL 060900Z AUTO 13005KT 9SM SCT010 OVC050 M16/M18 A2998 RMK AO1 SLP220
SPECI CYNL 060859Z AUTO 13005KT 9SM SCT010 OVC050 M16/M19 A2998 RMK AO1 SLP221
SPECI CYNL 060854Z AUTO 13005KT 9SM SCT010 BKN029 OVC052 M16/M19 A2998 RMK AO1 SLP221
METAR CYNL 060800Z AUTO 13005KT 9SM BKN010 OVC056 M17/M19 A2998 RMK AO1 SLP222
METAR CYNL 060700Z AUTO 13006KT 9SM BKN012 OVC015 M17/M20 A2998 RMK AO1 SLP225
SPECI CYNL 060656Z AUTO 12006KT 9SM BKN012 OVC015 M17/M20 A2998 RMK AO1 SLP225
SPECI CYNL 060648Z AUTO 12006KT 9SM FEW013 BKN015 OVC044 M17/M20 A2998 RMK AO1 SLP224
SPECI CYNL 060647Z AUTO 12006KT 9SM BKN014 OVC044 M17/M20 A2998 RMK AO1 SLP224
SPECI CYNL 060640Z AUTO 12005KT 9SM BKN015 OVC044 M17/M20 A2998 RMK AO1 SLP223
METAR CYNL 060600Z AUTO 13005KT 9SM SCT047 M17/M20 A2999 RMK AO1 SLP226
SPECI CYNL 060531Z AUTO 14009KT 9SM SCT024 OVC076 M17/M19 A2998 RMK AO1 SLP224
SPECI CYNL 060526Z AUTO 14006KT 9SM BKN024 OVC076 M17/M19 A2998 RMK AO1 SLP225
SPECI CYNL 060525Z AUTO 14006KT 9SM SCT024 OVC076 M17/M19 A2998 RMK AO1 SLP224
METAR CYNL 060500Z AUTO 13008KT 9SM OVC024 M17/M19 A2998 RMK AO1 SLP225
METAR CYNL 060400Z AUTO 12007KT 9SM FEW009 BKN023 OVC086 M17/M20 A2999 RMK AO1 SLP230
SPECI CYNL 060355Z AUTO 13006KT 9SM FEW009 SCT014 BKN022 M17/M20 A3000 RMK AO1 SLP231
SPECI CYNL 060349Z AUTO 12006KT 9SM FEW009 SCT014 OVC086 M17/M20 A3000 RMK AO1 SLP231
SPECI CYNL 060342Z AUTO 13005KT 8SM SCT009 BKN020 OVC088 M17/M20 A3000 RMK AO1 SLP232
SPECI CYNL 060341Z AUTO 13005KT 6SM SCT010 BKN020 OVC088 M17/M20 A3000 RMK AO1 SLP232
SPECI CYNL 060340Z AUTO 13005KT 6SM SCT010 BKN014 BKN023 M17/M20 A3000 RMK AO1 SLP232
SPECI CYNL 060339Z AUTO 13005KT 6SM VV009 M17/M20 A3000 RMK AO1 SLP231
SPECI CYNL 060333Z AUTO 13007KT 3SM VV014 M17/M20 A3000 RMK AO1 SLP232
SPECI CYNL 060329Z AUTO 14006KT 3SM VV016 M17/M20 A3000 RMK AO1 SLP233
SPECI CYNL 060320Z AUTO 13005KT 2 1/2SM VV020 M17/M20 A3000 RMK AO1 SLP234
SPECI CYNL 060317Z AUTO 12005KT 3SM VV022 M17/M20 A3000 RMK AO1 SLP233
SPECI CYNL 060316Z AUTO 12006KT 2 1/2SM VV024 M17/M20 A3000 RMK AO1 SLP233
SPECI CYNL 060315Z AUTO 12007KT 2 1/2SM VV025 M17/M20 A3000 RMK AO1 SLP234
SPECI CYNL 060311Z AUTO 13007KT 5SM VV029 M17/M20 A3000 RMK AO1 SLP234
SPECI CYNL 060309Z AUTO 13006KT 4SM VV030 M17/M20 A3000 RMK AO1 SLP234
METAR CYNL 060300Z AUTO 12006KT 5SM VV027 M17/M20 A3000 RMK AO1 SLP233
SPECI CYNL 060253Z AUTO 12007KT 3SM VV025 M17/M20 A3000 RMK AO1 SLP234
SPECI CYNL 060252Z AUTO 12007KT 2 1/2SM VV025 M17/M20 A3000 RMK AO1 SLP234
SPECI CYNL 060245Z AUTO 11007KT 2 1/2SM VV015 M17/M20 A3000 RMK AO1 SLP234
SPECI CYNL 060241Z AUTO 11007KT 2SM VV010 M17/M20 A3000 RMK AO1 SLP234
SPECI CYNL 060239Z AUTO 11008KT 1 1/2SM VV010 M17/M20 A3000 RMK AO1 SLP234
SPECI CYNL 060233Z AUTO 11006KT 1 1/4SM VV014 M17/M20 A3000 RMK AO1 SLP234
SPECI CYNL 060232Z AUTO 11007KT 1 1/4SM VV015 M17/M20 A3000 RMK AO1 SLP234
SPECI CYNL 060231Z AUTO 11008KT 1 1/2SM VV016 M17/M20 A3000 RMK AO1 SLP235
SPECI CYNL 060223Z AUTO 11007KT 2 1/2SM VV015 M18/M20 A3001 RMK AO1 SLP236
SPECI CYNL 060222Z AUTO 11007KT 2SM VV014 M18/M20 A3001 RMK AO1 SLP237
SPECI CYNL 060220Z AUTO 11007KT 1 1/2SM VV011 M18/M20 A3001 RMK AO1 SLP237
SPECI CYNL 060210Z AUTO 11006KT 1 1/4SM VV014 M18/M20 A3001 RMK AO1 SLP237
SPECI CYNL 060206Z AUTO 11006KT 1 3/4SM VV018 M18/M21 A3001 RMK AO1 SLP238
SPECI CYNL 060203Z AUTO 11006KT 2 1/2SM VV023 M18/M21 A3001 RMK AO1 SLP237
SPECI CYNL 060202Z AUTO 11006KT 3SM VV024 M18/M21 A3001 RMK AO1 SLP237
METAR CYNL 060200Z AUTO 11006KT 5SM VV026 M18/M21 A3001 RMK AO1 SLP237
SPECI CYNL 060135Z AUTO 11007KT 6SM FEW006 SCT010 BKN030 M18/M21 A3000 RMK AO1 SLP235
SPECI CYNL 060132Z AUTO 11006KT 4SM VV009 M18/M21 A3000 RMK AO1 SLP235
SPECI CYNL 060128Z AUTO 10008KT 5SM VV014 M18/M21 A3000 RMK AO1 SLP234
SPECI CYNL 060127Z AUTO 11008KT 6SM VV015 M18/M21 A3000 RMK AO1 SLP234
SPECI CYNL 060121Z AUTO 11007KT 9SM OVC030 M18/M21 A3000 RMK AO1 SLP236
METAR CYNL 060100Z AUTO 12007KT 9SM FEW018 BKN027 M18/M21 A3000 RMK AO1 SLP235
SPECI CYNL 060047Z AUTO 11007KT 9SM FEW019 SCT027 M18/M21 A3000 RMK AO1 SLP233
SPECI CYNL 060035Z AUTO 10009KT 9SM SCT021 BKN028 M18/M21 A3000 RMK AO1 SLP234
SPECI CYNL 060031Z AUTO 10009KT 9SM BKN021 M18/M21 A3000 RMK AO1 SLP235
SPECI CYNL 060026Z AUTO 11006KT 9SM SCT021 BKN028 M18/M21 A3000 RMK AO1 SLP235
SPECI CYNL 060013Z AUTO 10008KT 9SM BKN022 M18/M21 A3001 RMK AO1 SLP237
METAR CYNL 060000Z AUTO 10007KT 9SM CLR M18/M21 A3001 RMK AO1 SLP237
METAR CYNL 052300Z AUTO 11007KT 9SM CLR M18/M21 A3000 RMK AO1 SLP234
METAR CYNL 052200Z AUTO 11006KT 9SM CLR M18/M21 A2999 RMK AO1 SLP225
METAR CYNL 052100Z AUTO 10006KT 9SM CLR M19/M21 A2998 RMK AO1 SLP221
METAR CYNL 052000Z AUTO 10006KT 9SM CLR M19/M22 A2996 RMK AO1 SLP215
METAR CYNL 051900Z AUTO 09007KT 9SM FEW007 M19/M22 A2995 RMK AO1 SLP212
SPECI CYNL 051835Z AUTO 10007KT 9SM SCT007 M19/M22 A2995 RMK AO1 SLP209
METAR CYNL 051800Z AUTO 09005KT 9SM OVC007 M19/M22 A2994 RMK AO1 SLP209
METAR CYNL 051700Z AUTO 11004KT 9SM OVC005 M20/M23 A2993 RMK AO1 SLP205
METAR CYNL 051600Z AUTO 10003KT 9SM OVC005 M21/M24 A2992 RMK AO1 PRESRR SLP201
SPECI CYNL 051538Z AUTO ///// 9SM OVC005 M21/M24 A2991 RMK AO1 PRESRR SLP201
SPECI CYNL 051527Z AUTO 11002KT 3SM OVC004 M21/M24 A2990 RMK AO1 PRESRR SLP198
SPECI CYNL 051526Z AUTO 11003KT 1 3/4SM OVC004 M21/M24 A2990 RMK AO1 PRESRR SLP198
SPECI CYNL 051525Z AUTO 12003KT 2SM OVC004 M21/M24 A2991 RMK AO1 PRESRR SLP198
METAR CYNL 051500Z AUTO 12003KT 9SM OVC004 M21/M24 A2989 RMK AO1 PRESRR SLP194
SPECI CYNL 051434Z AUTO 07004KT 9SM BKN004 OVC007 M22/M25 A2987 RMK AO1 SLP186
SPECI CYNL 051427Z AUTO 09002KT 6SM BKN005 OVC007 M21/M25 A2987 RMK AO1 SLP185
SPECI CYNL 051414Z AUTO 07004KT 9SM OVC004 M21/M25 A2986 RMK AO1 SLP183
METAR CYNL 051400Z AUTO 07004KT 9SM OVC005 M21/M25 A2986 RMK AO1 SLP182
SPECI CYNL 051351Z AUTO 09004KT 9SM OVC005 M21/M25 A2986 RMK AO1 PRESRR SLP181
SPECI CYNL 051325Z AUTO ///// 9SM BKN004 OVC006 M22/M25 A2985 RMK AO1 PRESRR SLP178
METAR CYNL 051300Z AUTO ///// 9SM OVC005 M21/M24 A2985 RMK AO1 PRESRR SLP177
SPECI CYNL 051253Z AUTO 02005KT 9SM BKN005 M21/M24 A2984 RMK AO1 PRESRR SLP175
SPECI CYNL 051242Z AUTO ///// 9SM BKN004 M21/M24 A2984 RMK AO1 PRESRR SLP174
SPECI CYNL 051236Z AUTO ///// 9SM BKN005 M21/M24 A2984 RMK AO1 PRESRR SLP173
SPECI CYNL 051221Z AUTO 02002KT 9SM SCT006 M20/M23 A2983 RMK AO1 PRESRR SLP169
METAR CYNL 051200Z AUTO ///// 9SM OVC006 M20/M23 A2982 RMK AO1 PRESRR SLP167
SPECI CYNL 051134Z AUTO ///// 9SM BKN006 M19/M22 A2982 RMK AO1 SLP164
SPECI CYNL 051133Z AUTO ///// 9SM SCT006 M19/M22 A2982 RMK AO1 SLP164
SPECI CYNL 051131Z AUTO ///// 9SM BKN006 M19/M22 A2981 RMK AO1 SLP163
SPECI CYNL 051121Z AUTO ///// 9SM SCT006 M18/M21 A2981 RMK AO1 SLP161
METAR CYNL 051100Z AUTO 33003KT 9SM OVC005 M17/M20 A2980 RMK AO1 SLP156
SPECI CYNL 051045Z AUTO 31004KT 9SM OVC005 M17/M20 A2979 RMK AO1 SLP154
SPECI CYNL 051007Z AUTO 33005KT 4SM OVC003 M17/M19 A2978 RMK AO1 SLP149
SPECI CYNL 051004Z AUTO 34005KT 4SM OVC002 M17/M19 A2978 RMK AO1 SLP148
SPECI CYNL 051002Z AUTO ///// 2SM OVC002 M17/M19 A2978 RMK AO1 SLP148
METAR CYNL 051000Z AUTO ///// 1 1/2SM OVC002 M17/M19 A2978 RMK AO1 SLP148
SPECI CYNL 050959Z AUTO 34009KT 1 1/4SM OVC002 M17/M19 A2978 RMK AO1 SLP149
SPECI CYNL 050958Z AUTO 34007KT 1 1/2SM OVC002 M17/M19 A2978 RMK AO1 SLP149
SPECI CYNL 050955Z AUTO 35007KT 1 1/4SM OVC002 M17/M19 A2978 RMK AO1 PRESRR SLP149
SPECI CYNL 050954Z AUTO 34006KT 1 3/4SM OVC002 M17/M19 A2978 RMK AO1 PRESRR SLP149
SPECI CYNL 050953Z AUTO 34004KT 2 1/2SM OVC002 M17/M19 A2978 RMK AO1 PRESRR SLP149
SPECI CYNL 050952Z AUTO 34004KT 1 3/4SM OVC002 M17/M19 A2978 RMK AO1 PRESRR SLP148
SPECI CYNL 050944Z AUTO 32005KT 1SM OVC002 M17/M19 A2978 RMK AO1 PRESRR SLP148
SPECI CYNL 050940Z AUTO 33004KT 3/4SM OVC002 M17/M19 A2978 RMK AO1 PRESRR SLP147
SPECI CYNL 050938Z AUTO 33005KT 5/8SM OVC002 M17/M19 A2978 RMK AO1 PRESRR SLP147
SPECI CYNL 050937Z AUTO 33005KT 3/4SM OVC002 M17/M19 A2977 RMK AO1 PRESRR SLP147
SPECI CYNL 050936Z AUTO 33005KT 5/8SM OVC002 M17/M19 A2977 RMK AO1 PRESRR SLP147
SPECI CYNL 050934Z AUTO 34005KT 3/4SM OVC002 M16/M19 A2977 RMK AO1 PRESRR SLP146
SPECI CYNL 050933Z AUTO 33004KT 1SM OVC002 M16/M19 A2977 RMK AO1 PRESRR SLP146
SPECI CYNL 050931Z AUTO 33004KT 3/4SM OVC002 M16/M19 A2977 RMK AO1 PRESRR SLP146
SPECI CYNL 050929Z AUTO 32004KT 1SM OVC002 M16/M19 A2978 RMK AO1 PRESRR SLP147
SPECI CYNL 050928Z AUTO 32004KT 3/4SM OVC002 M16/M19 A2977 RMK AO1 PRESRR SLP147
SPECI CYNL 050925Z AUTO 32004KT 5/8SM OVC002 M16/M19 A2977 RMK AO1 PRESRR SLP146
SPECI CYNL 050924Z AUTO 32004KT 1SM OVC002 M16/M19 A2977 RMK AO1 PRESRR SLP146
SPECI CYNL 050923Z AUTO 32004KT 3/4SM OVC002 M16/M19 A2977 RMK AO1 PRESRR SLP146
SPECI CYNL 050922Z AUTO 32004KT 1SM OVC002 M16/M19 A2977 RMK AO1 PRESRR SLP146
SPECI CYNL 050919Z AUTO 32003KT 3/4SM OVC002 M16/M19 A2977 RMK AO1 PRESRR SLP146
SPECI CYNL 050915Z AUTO 33004KT 1 1/4SM OVC002 M16/M19 A2977 RMK AO1 PRESRR SLP145
SPECI CYNL 050914Z AUTO 32003KT 1 1/2SM OVC002 M16/M19 A2977 RMK AO1 PRESRR SLP145
SPECI CYNL 050913Z AUTO 32003KT 1SM OVC002 M16/M19 A2977 RMK AO1 PRESRR SLP145
SPECI CYNL 050910Z AUTO 32007KT 5/8SM OVC002 M16/M19 A2977 RMK AO1 PRESRR SLP145
SPECI CYNL 050909Z AUTO 33005KT 3/4SM OVC002 M16/M19 A2977 RMK AO1 PRESRR SLP145
SPECI CYNL 050908Z AUTO 32004KT 1SM OVC002 M16/M19 A2977 RMK AO1 PRESRR SLP144
SPECI CYNL 050905Z AUTO 32005KT 3/4SM OVC003 M16/M19 A2977 RMK AO1 PRESRR SLP144
SPECI CYNL 050903Z AUTO 32004KT 1 1/4SM OVC003 M16/M19 A2977 RMK AO1 PRESRR SLP143
SPECI CYNL 050902Z AUTO 32004KT 1 1/2SM OVC003 M16/M19 A2977 RMK AO1 PRESRR SLP143
SPECI CYNL 050901Z AUTO 31003KT 2SM OVC003 M16/M19 A2976 RMK AO1 PRESRR SLP143
METAR CYNL 050900Z AUTO 31003KT 1 1/2SM OVC003 M16/M19 A2976 RMK AO1 PRESRR SLP143
SPECI CYNL 050854Z AUTO 31004KT 1 1/4SM OVC003 M16/M19 A2976 RMK AO1 SLP142
SPECI CYNL 050852Z AUTO 32004KT 2 1/2SM OVC003 M16/M19 A2976 RMK AO1 SLP141
SPECI CYNL 050851Z AUTO 31003KT 3SM OVC003 M16/M19 A2976 RMK AO1 SLP140
SPECI CYNL 050850Z AUTO 32003KT 2 1/2SM OVC003 M16/M19 A2975 RMK AO1 SLP140
SPECI CYNL 050846Z AUTO 31004KT 1 3/4SM OVC003 M16/M19 A2975 RMK AO1 SLP139
SPECI CYNL 050841Z AUTO 32004KT 2 1/2SM OVC003 M16/M19 A2975 RMK AO1 SLP137
SPECI CYNL 050837Z AUTO 33003KT 3SM OVC003 M16/M19 A2974 RMK AO1 SLP136
SPECI CYNL 050832Z AUTO 33004KT 2SM OVC003 M16/M19 A2974 RMK AO1 SLP135
SPECI CYNL 050808Z AUTO 32002KT 4SM OVC004 M16/M19 A2973 RMK AO1 SLP131
METAR CYNL 050800Z AUTO 33004KT 9SM OVC005 M16/M19 A2973 RMK AO1 SLP130
METAR CYNL 050700Z AUTO 31005KT 9SM OVC008 M15/M18 A2973 RMK AO1 PRESRR SLP129
SPECI CYNL 050616Z AUTO 32004KT 9SM OVC009 M14/M16 A2970 RMK AO1 PRESRR SLP118
METAR CYNL 050600Z AUTO 30003KT 9SM BKN010 OVC013 M14/M16 A2970 RMK AO1 PRESRR SLP117
SPECI CYNL 050536Z AUTO 25003KT 9SM BKN012 OVC016 M14/M16 A2969 RMK AO1 SLP115
METAR CYNL 050500Z AUTO 22003KT 9SM OVC019 M14/M16 A2968 RMK AO1 SLP111
SPECI CYNL 050418Z AUTO 21002KT 9SM BKN024 OVC044 M15/M18 A2967 RMK AO1 SLP113
SPECI CYNL 050414Z AUTO 24002KT 9SM BKN025 OVC044 M15/M18 A2968 RMK AO1 SLP115
METAR CYNL 050400Z AUTO 27002KT 9SM OVC045 M16/M18 A2968 RMK AO1 SLP115
METAR CYNL 050300Z AUTO 21003KT 9SM FEW024 BKN049 M15/M17 A2967 RMK AO1 PRESFR SLP112
SPECI CYNL 050237Z AUTO 24003KT 200V270 9SM SCT025 BKN050 M15/M17 A2967 RMK AO1 PRESRR SLP114
SPECI CYNL 050225Z AUTO 27004KT 9SM BKN025 BKN050 M15/M17 A2969 RMK AO1 PRESRR SLP119
SPECI CYNL 050213Z AUTO 00000KT 9SM OVC024 M15/M17 A2967 RMK AO1 PRESRR SLP113
SPECI CYNL 050210Z AUTO 00000KT 9SM OVC025 M15/M17 A2968 RMK AO1 PRESRR SLP115
METAR CYNL 050200Z AUTO 25003KT 9SM BKN023 OVC047 M15/M17 A2969 RMK AO1 PRESRR SLP119
SPECI CYNL 050152Z AUTO 23004KT 9SM BKN024 OVC048 M15/M17 A2969 RMK AO1 PRESRR SLP118
SPECI CYNL 050138Z AUTO 22002KT 9SM BKN026 OVC048 M14/M17 A2967 RMK AO1 PRESRR SLP112
SPECI CYNL 050131Z AUTO 00000KT 9SM SCT027 OVC048 M14/M17 A2967 RMK AO1 PRESRR SLP112
METAR CYNL 050100Z AUTO 26002KT 9SM OVC029 M14/M17 A2967 RMK AO1 PRESRR SLP113
SPECI CYNL 050031Z AUTO 20003KT 9SM BKN029 OVC058 M15/M17 A2966 RMK AO1 SLP109
METAR CYNL 050000Z AUTO 18002KT 9SM FEW048 OVC056 M15/M17 A2964 RMK AO1 SLP103
SPECI CYNL 042341Z AUTO 16002KT 9SM SCT027 BKN048 OVC058 M15/M17 A2964 RMK AO1 SLP104
SPECI CYNL 042317Z AUTO 18004KT 9SM FEW006 SCT011 BKN029 M15/M17 A2965 RMK AO1 SLP106
SPECI CYNL 042314Z AUTO 17004KT 9SM FEW006 SCT013 BKN017 M15/M17 A2965 RMK AO1 SLP105
SPECI CYNL 042313Z AUTO 17004KT 9SM FEW006 BKN013 BKN030 M15/M17 A2965 RMK AO1 SLP105
SPECI CYNL 042310Z AUTO 18005KT 9SM SCT006 BKN016 OVC062 M15/M17 A2965 RMK AO1 SLP105
SPECI CYNL 042309Z AUTO 17005KT 9SM SCT007 BKN012 OVC062 M15/M17 A2965 RMK AO1 SLP105
SPECI CYNL 042308Z AUTO 17004KT 9SM FEW007 SCT011 BKN015 M15/M17 A2965 RMK AO1 SLP104
SPECI CYNL 042305Z AUTO 17004KT 4SM FEW007 SCT011 BKN014 M15/M17 A2964 RMK AO1 SLP103
SPECI CYNL 042304Z AUTO 16004KT 4SM FEW007 SCT011 BKN015 M15/M17 A2964 RMK AO1 SLP103
SPECI CYNL 042303Z AUTO 17003KT 3SM VV009 M14/M17 A2964 RMK AO1 SLP104
SPECI CYNL 042301Z AUTO 18003KT 1 3/4SM VV011 M14/M17 A2965 RMK AO1 SLP104
METAR CYNL 042300Z AUTO 18003KT 2 1/2SM VV012 M14/M17 A2965 RMK AO1 SLP105
SPECI CYNL 042259Z AUTO 18003KT 4SM VV013 M14/M17 A2965 RMK AO1 SLP105
SPECI CYNL 042258Z AUTO 18003KT 2 1/2SM VV014 M14/M17 A2965 RMK AO1 SLP105
SPECI CYNL 042257Z AUTO 18003KT 2 1/2SM VV015 M14/M17 A2965 RMK AO1 SLP105
SPECI CYNL 042253Z AUTO 19003KT 3SM VV014 M14/M17 A2965 RMK AO1 SLP107
SPECI CYNL 042251Z AUTO 19003KT 2SM VV014 M14/M17 A2965 RMK AO1 SLP107
SPECI CYNL 042248Z AUTO 20003KT 1 3/4SM VV014 M14/M17 A2966 RMK AO1 SLP108
SPECI CYNL 042244Z AUTO 22003KT 2SM VV014 M14/M17 A2966 RMK AO1 SLP109
SPECI CYNL 042243Z AUTO 22003KT 3SM VV014 M14/M17 A2966 RMK AO1 SLP109
SPECI CYNL 042242Z AUTO 21003KT 4SM VV015 M14/M17 A2966 RMK AO1 SLP109
SPECI CYNL 042239Z AUTO 22003KT 2SM VV015 M14/M17 A2966 RMK AO1 SLP110
SPECI CYNL 042234Z AUTO 23003KT 1 1/2SM VV019 M14/M17 A2966 RMK AO1 SLP110
SPECI CYNL 042233Z AUTO 23003KT 2SM VV021 M14/M17 A2966 RMK AO1 SLP110
SPECI CYNL 042232Z AUTO 23002KT 4SM VV021 M14/M17 A2966 RMK AO1 SLP110
METAR CYNL 042200Z AUTO 26004KT 9SM OVC042 M15/M17 A2966 RMK AO1 SLP109
SPECI CYNL 042139Z AUTO 19004KT 8SM FEW010 SCT017 OVC037 M15/M17 A2964 RMK AO1 SLP102
SPECI CYNL 042132Z AUTO 22004KT 4SM FEW009 SCT017 BKN024 M15/M17 A2965 RMK AO1 SLP106
SPECI CYNL 042124Z AUTO 22005KT 3SM VV021 M15/M17 A2965 RMK AO1 SLP107
SPECI CYNL 042123Z AUTO 23005KT 2 1/2SM VV020 M15/M17 A2965 RMK AO1 SLP107
SPECI CYNL 042122Z AUTO 23006KT 1 3/4SM VV019 M15/M17 A2965 RMK AO1 SLP107
SPECI CYNL 042120Z AUTO 22007KT 1 1/4SM VV019 M15/M17 A2965 RMK AO1 SLP107
SPECI CYNL 042117Z AUTO 23006KT 2 1/2SM VV018 M15/M17 A2965 RMK AO1 SLP107
SPECI CYNL 042114Z AUTO 23005KT 6SM VV015 M15/M17 A2965 RMK AO1 SLP106
SPECI CYNL 042112Z AUTO 23006KT 5SM VV011 M15/M17 A2965 RMK AO1 SLP106
SPECI CYNL 042108Z AUTO 22005KT 9SM FEW008 BKN047 M15/M17 A2965 RMK AO1 SLP106
METAR CYNL 042100Z AUTO 24005KT 9SM FEW028 BKN047 M15/M17 A2964 RMK AO1 SLP104
SPECI CYNL 042048Z AUTO 22004KT 9SM FEW019 SCT029 BKN045 M15/M17 A2964 RMK AO1 SLP102
SPECI CYNL 042036Z AUTO 21005KT 9SM OVC027 M15/M18 A2964 RMK AO1 SLP104
SPECI CYNL 042030Z AUTO 23004KT 9SM SCT019 OVC030 M15/M18 A2964 RMK AO1 SLP104
SPECI CYNL 042015Z AUTO 24005KT 3SM VV023 M15/M17 A2964 RMK AO1 SLP103
SPECI CYNL 042011Z AUTO 23006KT 2 1/2SM VV021 M15/M18 A2964 RMK AO1 SLP103
SPECI CYNL 042010Z AUTO 23007KT 3SM VV020 M15/M18 A2964 RMK AO1 SLP103
SPECI CYNL 042006Z AUTO 23004KT 2SM VV019 M15/M18 A2964 RMK AO1 SLP103
SPECI CYNL 042004Z AUTO 23005KT 1 1/2SM VV018 M15/M18 A2964 RMK AO1 SLP104
METAR CYNL 042000Z AUTO 22004KT 2 1/2SM VV020 M15/M18 A2964 RMK AO1 SLP103
SPECI CYNL 041952Z AUTO 22004KT 2 1/2SM VV024 M15/M18 A2964 RMK AO1 SLP104
SPECI CYNL 041951Z AUTO 23004KT 2 1/2SM VV025 M15/M18 A2964 RMK AO1 SLP104
SPECI CYNL 041946Z AUTO 22006KT 3SM FEW018 OVC025 M15/M18 A2964 RMK AO1 SLP104
SPECI CYNL 041923Z AUTO 23006KT 9SM FEW012 BKN019 OVC025 M15/M18 A2964 RMK AO1 SLP103
SPECI CYNL 041920Z AUTO 22005KT 9SM SCT019 OVC025 M15/M18 A2964 RMK AO1 SLP103
SPECI CYNL 041918Z AUTO 23004KT 9SM BKN019 OVC025 M16/M18 A2964 RMK AO1 SLP103
SPECI CYNL 041913Z AUTO 23006KT 9SM SCT020 OVC025 M16/M18 A2964 RMK AO1 SLP103
SPECI CYNL 041904Z AUTO 23004KT 9SM VV024 M16/M18 A2964 RMK AO1 SLP103
METAR CYNL 041900Z AUTO 22004KT 9SM FEW020 OVC026 M16/M18 A2963 RMK AO1 SLP102
SPECI CYNL 041836Z AUTO 23004KT 9SM OVC029 M16/M18 A2964 RMK AO1 SLP103
SPECI CYNL 041833Z AUTO 23004KT 9SM OVC030 M16/M18 A2964 RMK AO1 SLP104
SPECI CYNL 041832Z AUTO 24004KT 9SM BKN029 OVC034 M16/M18 A2964 RMK AO1 SLP104
SPECI CYNL 041802Z AUTO 26005KT 9SM SCT027 OVC036 M16/M19 A2963 RMK AO1 SLP103
METAR CYNL 041800Z AUTO 24003KT 9SM BKN027 OVC036 M16/M19 A2964 RMK AO1 SLP103
SPECI CYNL 041737Z AUTO 22004KT 9SM OVC029 M16/M19 A2964 RMK AO1 SLP103
METAR CYNL 041700Z AUTO 21003KT 9SM OVC034 M17/M19 A2964 RMK AO1 SLP106
METAR CYNL 041600Z AUTO 00000KT 9SM OVC038 M17/M20 A2964 RMK AO1 SLP104
METAR CYNL 041500Z AUTO 23002KT 9SM OVC037 M17/M20 A2962 RMK AO1 SLP100
METAR CYNL 041400Z AUTO 00000KT 9SM OVC038 M17/M20 A2961 RMK AO1 PRESRR SLP095
METAR CYNL 041300Z AUTO 00000KT 9SM FEW016 OVC041 M18/M20 A2959 RMK AO1 PRESRR SLP088
SPECI CYNL 041247Z AUTO 00000KT 9SM SCT016 OVC041 M18/M21 A2958 RMK AO1 SLP085
SPECI CYNL 041203Z AUTO ///// 9SM FEW016 BKN024 OVC041 M18/M21 A2957 RMK AO1 SLP081
METAR CYNL 041200Z AUTO 00000KT 9SM FEW016 SCT024 OVC041 M18/M21 A2956 RMK AO1 SLP080
SPECI CYNL 041158Z AUTO 00000KT 9SM FEW016 SCT024 OVC041 M18/M21 A2956 RMK AO1 SLP079
SPECI CYNL 041132Z AUTO 00000KT 9SM BKN015 OVC023 M18/M21 A2956 RMK AO1 SLP078